<?xml version="1.0" encoding="UTF-8" standalone="no" ?><gpx xmlns="http://www.topografix.com/GPX/1/1" xmlns:gpxx="http://www.garmin.com/xmlschemas/GpxExtensions/v3" xmlns:wptx1="http://www.garmin.com/xmlschemas/WaypointExtension/v1" xmlns:gpxtpx="http://www.garmin.com/xmlschemas/TrackPointExtension/v1" creator="GuideVTT.com" version="1.1" xmlns:xsi="http://www.w3.org/2001/XMLSchema-instance" xsi:schemaLocation="http://www.topografix.com/GPX/1/1 http://www.topografix.com/GPX/1/1/gpx.xsd http://www.garmin.com/xmlschemas/GpxExtensions/v3 http://www8.garmin.com/xmlschemas/GpxExtensionsv3.xsd http://www.garmin.com/xmlschemas/WaypointExtension/v1 http://www8.garmin.com/xmlschemas/WaypointExtensionv1.xsd http://www.garmin.com/xmlschemas/TrackPointExtension/v1 http://www.garmin.com/xmlschemas/TrackPointExtensionv1.xsd">
<metadata><link href="http://www.garmin.com"><text>Garmin International</text></link><time>2013-06-22T15:13:50Z</time></metadata>
<trk><name>b5dg0620.gpx</name><extensions><gpxx:TrackExtension><gpxx:DisplayColor>Cyan</gpxx:DisplayColor></gpxx:TrackExtension></extensions><trkseg>
<trkpt lat="46.4943" lon="6.70966"><ele>397</ele><time>2021-05-13T15:06:20Z</time></trkpt>
<trkpt lat="46.4943" lon="6.70964"><ele>396.8</ele><time>2021-05-13T15:06:21Z</time></trkpt>
<trkpt lat="46.49433" lon="6.70961"><ele>396.2</ele><time>2021-05-13T15:06:24Z</time></trkpt>
<trkpt lat="46.49435" lon="6.70957"><ele>395.6</ele><time>2021-05-13T15:06:26Z</time></trkpt>
<trkpt lat="46.49437" lon="6.70951"><ele>394.8</ele><time>2021-05-13T15:06:28Z</time></trkpt>
<trkpt lat="46.49445" lon="6.70937"><ele>393.2</ele><time>2021-05-13T15:06:34Z</time></trkpt>
<trkpt lat="46.49458" lon="6.70916"><ele>392.8</ele><time>2021-05-13T15:06:41Z</time></trkpt>
<trkpt lat="46.4946" lon="6.70913"><ele>392.6</ele><time>2021-05-13T15:06:42Z</time></trkpt>
<trkpt lat="46.49463" lon="6.7091"><ele>392.4</ele><time>2021-05-13T15:06:43Z</time></trkpt>
<trkpt lat="46.49465" lon="6.70907"><ele>392.4</ele><time>2021-05-13T15:06:44Z</time></trkpt>
<trkpt lat="46.49484" lon="6.70897"><ele>392.4</ele><time>2021-05-13T15:06:53Z</time></trkpt>
<trkpt lat="46.49495" lon="6.70918"><ele>396</ele><time>2021-05-13T15:07:05Z</time></trkpt>
<trkpt lat="46.49496" lon="6.70921"><ele>396.4</ele><time>2021-05-13T15:07:07Z</time></trkpt>
<trkpt lat="46.49496" lon="6.70923"><ele>396.6</ele><time>2021-05-13T15:07:08Z</time></trkpt>
<trkpt lat="46.49497" lon="6.70929"><ele>397.6</ele><time>2021-05-13T15:07:11Z</time></trkpt>
<trkpt lat="46.49496" lon="6.70936"><ele>398.6</ele><time>2021-05-13T15:07:14Z</time></trkpt>
<trkpt lat="46.49494" lon="6.70941"><ele>399</ele><time>2021-05-13T15:07:16Z</time></trkpt>
<trkpt lat="46.49484" lon="6.70963"><ele>400.6</ele><time>2021-05-13T15:07:24Z</time></trkpt>
<trkpt lat="46.49472" lon="6.70986"><ele>401.2</ele><time>2021-05-13T15:07:33Z</time></trkpt>
<trkpt lat="46.49461" lon="6.71008"><ele>402</ele><time>2021-05-13T15:07:42Z</time></trkpt>
<trkpt lat="46.49437" lon="6.7104"><ele>402.8</ele><time>2021-05-13T15:07:54Z</time></trkpt>
<trkpt lat="46.4942" lon="6.71054"><ele>403.6</ele><time>2021-05-13T15:08:01Z</time></trkpt>
<trkpt lat="46.49415" lon="6.71058"><ele>404</ele><time>2021-05-13T15:08:04Z</time></trkpt>
<trkpt lat="46.49398" lon="6.7107"><ele>403.8</ele><time>2021-05-13T15:08:09Z</time></trkpt>
<trkpt lat="46.4938" lon="6.71085"><ele>403.6</ele><time>2021-05-13T15:08:13Z</time></trkpt>
<trkpt lat="46.49363" lon="6.71099"><ele>404.2</ele><time>2021-05-13T15:08:17Z</time></trkpt>
<trkpt lat="46.49347" lon="6.71117"><ele>402.8</ele><time>2021-05-13T15:08:23Z</time></trkpt>
<trkpt lat="46.49338" lon="6.71133"><ele>402.4</ele><time>2021-05-13T15:08:28Z</time></trkpt>
<trkpt lat="46.49326" lon="6.71153"><ele>403.8</ele><time>2021-05-13T15:08:36Z</time></trkpt>
<trkpt lat="46.49324" lon="6.71157"><ele>404.2</ele><time>2021-05-13T15:08:38Z</time></trkpt>
<trkpt lat="46.49312" lon="6.71178"><ele>405.4</ele><time>2021-05-13T15:08:48Z</time></trkpt>
<trkpt lat="46.49301" lon="6.71199"><ele>406.2</ele><time>2021-05-13T15:08:57Z</time></trkpt>
<trkpt lat="46.49287" lon="6.71217"><ele>407.6</ele><time>2021-05-13T15:09:05Z</time></trkpt>
<trkpt lat="46.4927" lon="6.71234"><ele>409</ele><time>2021-05-13T15:09:12Z</time></trkpt>
<trkpt lat="46.49256" lon="6.71249"><ele>410.2</ele><time>2021-05-13T15:09:18Z</time></trkpt>
<trkpt lat="46.49241" lon="6.71267"><ele>411</ele><time>2021-05-13T15:09:24Z</time></trkpt>
<trkpt lat="46.4922" lon="6.71301"><ele>413.8</ele><time>2021-05-13T15:09:35Z</time></trkpt>
<trkpt lat="46.49209" lon="6.71327"><ele>413.6</ele><time>2021-05-13T15:09:43Z</time></trkpt>
<trkpt lat="46.49205" lon="6.71356"><ele>414.6</ele><time>2021-05-13T15:09:49Z</time></trkpt>
<trkpt lat="46.49203" lon="6.71381"><ele>416.6</ele><time>2021-05-13T15:09:56Z</time></trkpt>
<trkpt lat="46.49202" lon="6.71408"><ele>417.2</ele><time>2021-05-13T15:10:03Z</time></trkpt>
<trkpt lat="46.49202" lon="6.71435"><ele>416</ele><time>2021-05-13T15:10:08Z</time></trkpt>
<trkpt lat="46.49196" lon="6.71459"><ele>415</ele><time>2021-05-13T15:10:15Z</time></trkpt>
<trkpt lat="46.4919" lon="6.71482"><ele>415.2</ele><time>2021-05-13T15:10:21Z</time></trkpt>
<trkpt lat="46.49188" lon="6.71495"><ele>415.6</ele><time>2021-05-13T15:10:24Z</time></trkpt>
<trkpt lat="46.49187" lon="6.71499"><ele>415.8</ele><time>2021-05-13T15:10:25Z</time></trkpt>
<trkpt lat="46.49183" lon="6.71511"><ele>416.4</ele><time>2021-05-13T15:10:28Z</time></trkpt>
<trkpt lat="46.49179" lon="6.71529"><ele>417.6</ele><time>2021-05-13T15:10:33Z</time></trkpt>
<trkpt lat="46.49172" lon="6.71554"><ele>419.2</ele><time>2021-05-13T15:10:42Z</time></trkpt>
<trkpt lat="46.49154" lon="6.71585"><ele>420.8</ele><time>2021-05-13T15:10:55Z</time></trkpt>
<trkpt lat="46.49149" lon="6.71593"><ele>421.6</ele><time>2021-05-13T15:10:59Z</time></trkpt>
<trkpt lat="46.49138" lon="6.71614"><ele>422.8</ele><time>2021-05-13T15:11:09Z</time></trkpt>
<trkpt lat="46.49125" lon="6.71637"><ele>424.6</ele><time>2021-05-13T15:11:17Z</time></trkpt>
<trkpt lat="46.49111" lon="6.71657"><ele>428.4</ele><time>2021-05-13T15:11:24Z</time></trkpt>
<trkpt lat="46.49095" lon="6.71679"><ele>428.6</ele><time>2021-05-13T15:11:30Z</time></trkpt>
<trkpt lat="46.49081" lon="6.71703"><ele>427.8</ele><time>2021-05-13T15:11:35Z</time></trkpt>
<trkpt lat="46.49073" lon="6.71714"><ele>427.2</ele><time>2021-05-13T15:11:37Z</time></trkpt>
<trkpt lat="46.49058" lon="6.71732"><ele>425.4</ele><time>2021-05-13T15:11:40Z</time></trkpt>
<trkpt lat="46.49041" lon="6.71748"><ele>423.2</ele><time>2021-05-13T15:11:43Z</time></trkpt>
<trkpt lat="46.49033" lon="6.71757"><ele>421.2</ele><time>2021-05-13T15:11:45Z</time></trkpt>
<trkpt lat="46.49024" lon="6.71766"><ele>419.6</ele><time>2021-05-13T15:11:48Z</time></trkpt>
<trkpt lat="46.49007" lon="6.71785"><ele>412.2</ele><time>2021-05-13T15:11:56Z</time></trkpt>
<trkpt lat="46.48989" lon="6.71798"><ele>408.4</ele><time>2021-05-13T15:12:00Z</time></trkpt>
<trkpt lat="46.48976" lon="6.7182"><ele>405.2</ele><time>2021-05-13T15:12:04Z</time></trkpt>
<trkpt lat="46.48962" lon="6.71843"><ele>403</ele><time>2021-05-13T15:12:08Z</time></trkpt>
<trkpt lat="46.48946" lon="6.71868"><ele>401.2</ele><time>2021-05-13T15:12:12Z</time></trkpt>
<trkpt lat="46.48933" lon="6.71894"><ele>401</ele><time>2021-05-13T15:12:16Z</time></trkpt>
<trkpt lat="46.48924" lon="6.71909"><ele>402.4</ele><time>2021-05-13T15:12:19Z</time></trkpt>
<trkpt lat="46.4892" lon="6.71918"><ele>402.4</ele><time>2021-05-13T15:12:21Z</time></trkpt>
<trkpt lat="46.48913" lon="6.71929"><ele>403</ele><time>2021-05-13T15:12:24Z</time></trkpt>
<trkpt lat="46.48909" lon="6.71935"><ele>403.2</ele><time>2021-05-13T15:12:26Z</time></trkpt>
<trkpt lat="46.48904" lon="6.71945"><ele>403.6</ele><time>2021-05-13T15:12:29Z</time></trkpt>
<trkpt lat="46.48883" lon="6.71975"><ele>403.8</ele><time>2021-05-13T15:12:38Z</time></trkpt>
<trkpt lat="46.4888" lon="6.7198"><ele>403.6</ele><time>2021-05-13T15:12:39Z</time></trkpt>
<trkpt lat="46.48877" lon="6.71984"><ele>403.8</ele><time>2021-05-13T15:12:40Z</time></trkpt>
<trkpt lat="46.48874" lon="6.71989"><ele>403.8</ele><time>2021-05-13T15:12:41Z</time></trkpt>
<trkpt lat="46.48861" lon="6.72013"><ele>403</ele><time>2021-05-13T15:12:45Z</time></trkpt>
<trkpt lat="46.48847" lon="6.72041"><ele>403</ele><time>2021-05-13T15:12:49Z</time></trkpt>
<trkpt lat="46.48839" lon="6.72064"><ele>403.2</ele><time>2021-05-13T15:12:52Z</time></trkpt>
<trkpt lat="46.48831" lon="6.72088"><ele>403.4</ele><time>2021-05-13T15:12:55Z</time></trkpt>
<trkpt lat="46.48823" lon="6.72118"><ele>403.6</ele><time>2021-05-13T15:12:59Z</time></trkpt>
<trkpt lat="46.48821" lon="6.72129"><ele>404</ele><time>2021-05-13T15:13:01Z</time></trkpt>
<trkpt lat="46.4882" lon="6.72139"><ele>404.4</ele><time>2021-05-13T15:13:03Z</time></trkpt>
<trkpt lat="46.48819" lon="6.72154"><ele>404.8</ele><time>2021-05-13T15:13:07Z</time></trkpt>
<trkpt lat="46.48821" lon="6.72164"><ele>405.2</ele><time>2021-05-13T15:13:11Z</time></trkpt>
<trkpt lat="46.48824" lon="6.72164"><ele>406.4</ele><time>2021-05-13T15:13:14Z</time></trkpt>
<trkpt lat="46.48829" lon="6.72164"><ele>407.6</ele><time>2021-05-13T15:13:18Z</time></trkpt>
<trkpt lat="46.48839" lon="6.7216"><ele>409.8</ele><time>2021-05-13T15:13:28Z</time></trkpt>
<trkpt lat="46.48851" lon="6.72157"><ele>413</ele><time>2021-05-13T15:13:39Z</time></trkpt>
<trkpt lat="46.48858" lon="6.72153"><ele>415.8</ele><time>2021-05-13T15:13:46Z</time></trkpt>
<trkpt lat="46.48868" lon="6.7213"><ele>418.8</ele><time>2021-05-13T15:13:58Z</time></trkpt>
<trkpt lat="46.48872" lon="6.72121"><ele>419.2</ele><time>2021-05-13T15:14:02Z</time></trkpt>
<trkpt lat="46.48883" lon="6.72098"><ele>420.6</ele><time>2021-05-13T15:14:13Z</time></trkpt>
<trkpt lat="46.48893" lon="6.72074"><ele>422.8</ele><time>2021-05-13T15:14:26Z</time></trkpt>
<trkpt lat="46.48899" lon="6.72058"><ele>423.8</ele><time>2021-05-13T15:14:33Z</time></trkpt>
<trkpt lat="46.48909" lon="6.72034"><ele>425</ele><time>2021-05-13T15:14:43Z</time></trkpt>
<trkpt lat="46.48921" lon="6.72014"><ele>426.2</ele><time>2021-05-13T15:14:52Z</time></trkpt>
<trkpt lat="46.48935" lon="6.71994"><ele>427.4</ele><time>2021-05-13T15:15:02Z</time></trkpt>
<trkpt lat="46.48951" lon="6.71978"><ele>429</ele><time>2021-05-13T15:15:12Z</time></trkpt>
<trkpt lat="46.48971" lon="6.71982"><ele>429.8</ele><time>2021-05-13T15:15:21Z</time></trkpt>
<trkpt lat="46.48991" lon="6.71985"><ele>430.8</ele><time>2021-05-13T15:15:29Z</time></trkpt>
<trkpt lat="46.4902" lon="6.71982"><ele>434</ele><time>2021-05-13T15:15:42Z</time></trkpt>
<trkpt lat="46.49033" lon="6.71963"><ele>436</ele><time>2021-05-13T15:15:51Z</time></trkpt>
<trkpt lat="46.49043" lon="6.71941"><ele>437</ele><time>2021-05-13T15:15:59Z</time></trkpt>
<trkpt lat="46.49053" lon="6.71918"><ele>438</ele><time>2021-05-13T15:16:06Z</time></trkpt>
<trkpt lat="46.49071" lon="6.71915"><ele>438.4</ele><time>2021-05-13T15:16:13Z</time></trkpt>
<trkpt lat="46.49087" lon="6.71929"><ele>438.4</ele><time>2021-05-13T15:16:20Z</time></trkpt>
<trkpt lat="46.49098" lon="6.71909"><ele>440</ele><time>2021-05-13T15:16:28Z</time></trkpt>
<trkpt lat="46.49105" lon="6.71884"><ele>441.2</ele><time>2021-05-13T15:16:36Z</time></trkpt>
<trkpt lat="46.49118" lon="6.71867"><ele>442</ele><time>2021-05-13T15:16:45Z</time></trkpt>
<trkpt lat="46.49138" lon="6.71869"><ele>444</ele><time>2021-05-13T15:16:55Z</time></trkpt>
<trkpt lat="46.49156" lon="6.71869"><ele>446.2</ele><time>2021-05-13T15:17:05Z</time></trkpt>
<trkpt lat="46.49172" lon="6.71858"><ele>448.4</ele><time>2021-05-13T15:17:17Z</time></trkpt>
<trkpt lat="46.49186" lon="6.71841"><ele>451.2</ele><time>2021-05-13T15:17:30Z</time></trkpt>
<trkpt lat="46.492" lon="6.71825"><ele>454.2</ele><time>2021-05-13T15:17:43Z</time></trkpt>
<trkpt lat="46.49218" lon="6.71803"><ele>459.2</ele><time>2021-05-13T15:18:02Z</time></trkpt>
<trkpt lat="46.49227" lon="6.71789"><ele>461.6</ele><time>2021-05-13T15:18:14Z</time></trkpt>
<trkpt lat="46.49234" lon="6.71774"><ele>464.8</ele><time>2021-05-13T15:18:26Z</time></trkpt>
<trkpt lat="46.49243" lon="6.71752"><ele>468.2</ele><time>2021-05-13T15:18:42Z</time></trkpt>
<trkpt lat="46.49248" lon="6.71738"><ele>470.4</ele><time>2021-05-13T15:18:52Z</time></trkpt>
<trkpt lat="46.49255" lon="6.71724"><ele>472</ele><time>2021-05-13T15:19:02Z</time></trkpt>
<trkpt lat="46.49266" lon="6.71702"><ele>473.6</ele><time>2021-05-13T15:19:16Z</time></trkpt>
<trkpt lat="46.49279" lon="6.71681"><ele>475.8</ele><time>2021-05-13T15:19:30Z</time></trkpt>
<trkpt lat="46.49284" lon="6.71674"><ele>477</ele><time>2021-05-13T15:19:36Z</time></trkpt>
<trkpt lat="46.49304" lon="6.71651"><ele>480.2</ele><time>2021-05-13T15:19:56Z</time></trkpt>
<trkpt lat="46.49305" lon="6.71651"><ele>480.4</ele><time>2021-05-13T15:19:57Z</time></trkpt>
<trkpt lat="46.49309" lon="6.71651"><ele>480.6</ele><time>2021-05-13T15:20:00Z</time></trkpt>
<trkpt lat="46.49327" lon="6.71645"><ele>483.4</ele><time>2021-05-13T15:20:14Z</time></trkpt>
<trkpt lat="46.49342" lon="6.71641"><ele>486.4</ele><time>2021-05-13T15:20:26Z</time></trkpt>
<trkpt lat="46.49356" lon="6.7163"><ele>491.8</ele><time>2021-05-13T15:20:38Z</time></trkpt>
<trkpt lat="46.49352" lon="6.71648"><ele>492</ele><time>2021-05-13T15:20:47Z</time></trkpt>
<trkpt lat="46.49358" lon="6.71662"><ele>493</ele><time>2021-05-13T15:20:51Z</time></trkpt>
<trkpt lat="46.49365" lon="6.71672"><ele>493.4</ele><time>2021-05-13T15:20:53Z</time></trkpt>
<trkpt lat="46.49381" lon="6.71691"><ele>493</ele><time>2021-05-13T15:20:57Z</time></trkpt>
<trkpt lat="46.49384" lon="6.71721"><ele>493.4</ele><time>2021-05-13T15:21:02Z</time></trkpt>
<trkpt lat="46.49383" lon="6.71726"><ele>493.6</ele><time>2021-05-13T15:21:03Z</time></trkpt>
<trkpt lat="46.49381" lon="6.71759"><ele>493.4</ele><time>2021-05-13T15:21:08Z</time></trkpt>
<trkpt lat="46.49379" lon="6.71794"><ele>492.2</ele><time>2021-05-13T15:21:12Z</time></trkpt>
<trkpt lat="46.49378" lon="6.71827"><ele>489.6</ele><time>2021-05-13T15:21:15Z</time></trkpt>
<trkpt lat="46.49378" lon="6.71839"><ele>490.8</ele><time>2021-05-13T15:21:16Z</time></trkpt>
<trkpt lat="46.49378" lon="6.71849"><ele>490.4</ele><time>2021-05-13T15:21:17Z</time></trkpt>
<trkpt lat="46.49377" lon="6.71882"><ele>489</ele><time>2021-05-13T15:21:20Z</time></trkpt>
<trkpt lat="46.49375" lon="6.71903"><ele>488.6</ele><time>2021-05-13T15:21:22Z</time></trkpt>
<trkpt lat="46.49376" lon="6.71924"><ele>488.6</ele><time>2021-05-13T15:21:24Z</time></trkpt>
<trkpt lat="46.4938" lon="6.7195"><ele>488.6</ele><time>2021-05-13T15:21:27Z</time></trkpt>
<trkpt lat="46.49389" lon="6.71975"><ele>491</ele><time>2021-05-13T15:21:31Z</time></trkpt>
<trkpt lat="46.49399" lon="6.71998"><ele>491.6</ele><time>2021-05-13T15:21:37Z</time></trkpt>
<trkpt lat="46.49403" lon="6.72045"><ele>492.6</ele><time>2021-05-13T15:21:50Z</time></trkpt>
<trkpt lat="46.49408" lon="6.7207"><ele>493.6</ele><time>2021-05-13T15:21:58Z</time></trkpt>
<trkpt lat="46.49413" lon="6.72099"><ele>492.4</ele><time>2021-05-13T15:22:04Z</time></trkpt>
<trkpt lat="46.49415" lon="6.72129"><ele>491.4</ele><time>2021-05-13T15:22:08Z</time></trkpt>
<trkpt lat="46.49416" lon="6.72164"><ele>490.6</ele><time>2021-05-13T15:22:12Z</time></trkpt>
<trkpt lat="46.49417" lon="6.72191"><ele>490.2</ele><time>2021-05-13T15:22:15Z</time></trkpt>
<trkpt lat="46.49419" lon="6.72218"><ele>490</ele><time>2021-05-13T15:22:18Z</time></trkpt>
<trkpt lat="46.4942" lon="6.72246"><ele>489.4</ele><time>2021-05-13T15:22:21Z</time></trkpt>
<trkpt lat="46.49421" lon="6.72273"><ele>489.4</ele><time>2021-05-13T15:22:24Z</time></trkpt>
<trkpt lat="46.49423" lon="6.72299"><ele>488.8</ele><time>2021-05-13T15:22:27Z</time></trkpt>
<trkpt lat="46.49424" lon="6.72326"><ele>489.2</ele><time>2021-05-13T15:22:30Z</time></trkpt>
<trkpt lat="46.49426" lon="6.72353"><ele>489.4</ele><time>2021-05-13T15:22:33Z</time></trkpt>
<trkpt lat="46.49427" lon="6.72379"><ele>489.8</ele><time>2021-05-13T15:22:36Z</time></trkpt>
<trkpt lat="46.49429" lon="6.72412"><ele>490.2</ele><time>2021-05-13T15:22:40Z</time></trkpt>
<trkpt lat="46.49431" lon="6.72445"><ele>490.6</ele><time>2021-05-13T15:22:44Z</time></trkpt>
<trkpt lat="46.49432" lon="6.72476"><ele>491</ele><time>2021-05-13T15:22:48Z</time></trkpt>
<trkpt lat="46.49434" lon="6.72504"><ele>491.6</ele><time>2021-05-13T15:22:52Z</time></trkpt>
<trkpt lat="46.49437" lon="6.72529"><ele>492.2</ele><time>2021-05-13T15:22:56Z</time></trkpt>
<trkpt lat="46.49447" lon="6.72556"><ele>493.4</ele><time>2021-05-13T15:23:01Z</time></trkpt>
<trkpt lat="46.49458" lon="6.72574"><ele>494</ele><time>2021-05-13T15:23:05Z</time></trkpt>
<trkpt lat="46.49465" lon="6.72605"><ele>493.8</ele><time>2021-05-13T15:23:10Z</time></trkpt>
<trkpt lat="46.4946" lon="6.72638"><ele>492.4</ele><time>2021-05-13T15:23:14Z</time></trkpt>
<trkpt lat="46.49448" lon="6.72661"><ele>491.2</ele><time>2021-05-13T15:23:17Z</time></trkpt>
<trkpt lat="46.49429" lon="6.72678"><ele>490</ele><time>2021-05-13T15:23:20Z</time></trkpt>
<trkpt lat="46.49408" lon="6.72693"><ele>489</ele><time>2021-05-13T15:23:23Z</time></trkpt>
<trkpt lat="46.49384" lon="6.7271"><ele>487.6</ele><time>2021-05-13T15:23:26Z</time></trkpt>
<trkpt lat="46.49368" lon="6.72721"><ele>486.4</ele><time>2021-05-13T15:23:28Z</time></trkpt>
<trkpt lat="46.49351" lon="6.72733"><ele>485.2</ele><time>2021-05-13T15:23:30Z</time></trkpt>
<trkpt lat="46.49334" lon="6.72746"><ele>484</ele><time>2021-05-13T15:23:32Z</time></trkpt>
<trkpt lat="46.49317" lon="6.72758"><ele>482.6</ele><time>2021-05-13T15:23:34Z</time></trkpt>
<trkpt lat="46.49299" lon="6.7277"><ele>481.2</ele><time>2021-05-13T15:23:36Z</time></trkpt>
<trkpt lat="46.49281" lon="6.72783"><ele>479.8</ele><time>2021-05-13T15:23:38Z</time></trkpt>
<trkpt lat="46.49263" lon="6.72796"><ele>478.2</ele><time>2021-05-13T15:23:40Z</time></trkpt>
<trkpt lat="46.49255" lon="6.72804"><ele>477.4</ele><time>2021-05-13T15:23:41Z</time></trkpt>
<trkpt lat="46.49248" lon="6.72815"><ele>476.6</ele><time>2021-05-13T15:23:42Z</time></trkpt>
<trkpt lat="46.49243" lon="6.72827"><ele>475.4</ele><time>2021-05-13T15:23:43Z</time></trkpt>
<trkpt lat="46.49239" lon="6.72857"><ele>473.8</ele><time>2021-05-13T15:23:45Z</time></trkpt>
<trkpt lat="46.49244" lon="6.72888"><ele>472.4</ele><time>2021-05-13T15:23:47Z</time></trkpt>
<trkpt lat="46.49248" lon="6.72903"><ele>471.8</ele><time>2021-05-13T15:23:48Z</time></trkpt>
<trkpt lat="46.49256" lon="6.72933"><ele>470.4</ele><time>2021-05-13T15:23:50Z</time></trkpt>
<trkpt lat="46.49264" lon="6.72965"><ele>469</ele><time>2021-05-13T15:23:52Z</time></trkpt>
<trkpt lat="46.49271" lon="6.72997"><ele>467.8</ele><time>2021-05-13T15:23:54Z</time></trkpt>
<trkpt lat="46.49274" lon="6.73013"><ele>467</ele><time>2021-05-13T15:23:55Z</time></trkpt>
<trkpt lat="46.49275" lon="6.73047"><ele>465.4</ele><time>2021-05-13T15:23:57Z</time></trkpt>
<trkpt lat="46.49271" lon="6.73081"><ele>463.8</ele><time>2021-05-13T15:23:59Z</time></trkpt>
<trkpt lat="46.49268" lon="6.73114"><ele>462.4</ele><time>2021-05-13T15:24:01Z</time></trkpt>
<trkpt lat="46.49268" lon="6.7313"><ele>461.6</ele><time>2021-05-13T15:24:02Z</time></trkpt>
<trkpt lat="46.49273" lon="6.73163"><ele>459.8</ele><time>2021-05-13T15:24:04Z</time></trkpt>
<trkpt lat="46.49282" lon="6.73195"><ele>458.4</ele><time>2021-05-13T15:24:06Z</time></trkpt>
<trkpt lat="46.49291" lon="6.73226"><ele>456.8</ele><time>2021-05-13T15:24:08Z</time></trkpt>
<trkpt lat="46.493" lon="6.73257"><ele>455</ele><time>2021-05-13T15:24:10Z</time></trkpt>
<trkpt lat="46.49308" lon="6.73289"><ele>453.6</ele><time>2021-05-13T15:24:12Z</time></trkpt>
<trkpt lat="46.49317" lon="6.7332"><ele>452</ele><time>2021-05-13T15:24:14Z</time></trkpt>
<trkpt lat="46.49331" lon="6.73345"><ele>450.8</ele><time>2021-05-13T15:24:16Z</time></trkpt>
<trkpt lat="46.49348" lon="6.73363"><ele>449.2</ele><time>2021-05-13T15:24:18Z</time></trkpt>
<trkpt lat="46.49357" lon="6.7337"><ele>448.8</ele><time>2021-05-13T15:24:19Z</time></trkpt>
<trkpt lat="46.49365" lon="6.73376"><ele>448</ele><time>2021-05-13T15:24:20Z</time></trkpt>
<trkpt lat="46.49378" lon="6.734"><ele>446.8</ele><time>2021-05-13T15:24:23Z</time></trkpt>
<trkpt lat="46.49377" lon="6.73417"><ele>445.6</ele><time>2021-05-13T15:24:29Z</time></trkpt>
<trkpt lat="46.49369" lon="6.73425"><ele>445</ele><time>2021-05-13T15:24:32Z</time></trkpt>
<trkpt lat="46.49366" lon="6.73429"><ele>445</ele><time>2021-05-13T15:24:33Z</time></trkpt>
<trkpt lat="46.49359" lon="6.73455"><ele>447.2</ele><time>2021-05-13T15:24:39Z</time></trkpt>
<trkpt lat="46.49354" lon="6.73461"><ele>448</ele><time>2021-05-13T15:24:41Z</time></trkpt>
<trkpt lat="46.4935" lon="6.73467"><ele>448.8</ele><time>2021-05-13T15:24:43Z</time></trkpt>
<trkpt lat="46.49347" lon="6.73474"><ele>449.6</ele><time>2021-05-13T15:24:45Z</time></trkpt>
<trkpt lat="46.4934" lon="6.73498"><ele>451.2</ele><time>2021-05-13T15:24:51Z</time></trkpt>
<trkpt lat="46.49338" lon="6.73506"><ele>451.6</ele><time>2021-05-13T15:24:53Z</time></trkpt>
<trkpt lat="46.49337" lon="6.73524"><ele>452.4</ele><time>2021-05-13T15:24:57Z</time></trkpt>
<trkpt lat="46.49337" lon="6.73528"><ele>452.8</ele><time>2021-05-13T15:24:58Z</time></trkpt>
<trkpt lat="46.49338" lon="6.73538"><ele>453.2</ele><time>2021-05-13T15:25:00Z</time></trkpt>
<trkpt lat="46.49341" lon="6.7357"><ele>455.2</ele><time>2021-05-13T15:25:07Z</time></trkpt>
<trkpt lat="46.49341" lon="6.73579"><ele>456.2</ele><time>2021-05-13T15:25:09Z</time></trkpt>
<trkpt lat="46.49341" lon="6.73589"><ele>456.8</ele><time>2021-05-13T15:25:11Z</time></trkpt>
<trkpt lat="46.49341" lon="6.73617"><ele>459.2</ele><time>2021-05-13T15:25:16Z</time></trkpt>
<trkpt lat="46.49339" lon="6.73644"><ele>460.8</ele><time>2021-05-13T15:25:20Z</time></trkpt>
<trkpt lat="46.49335" lon="6.73673"><ele>461.8</ele><time>2021-05-13T15:25:24Z</time></trkpt>
<trkpt lat="46.49334" lon="6.73686"><ele>461.6</ele><time>2021-05-13T15:25:26Z</time></trkpt>
<trkpt lat="46.49331" lon="6.73714"><ele>459.6</ele><time>2021-05-13T15:25:30Z</time></trkpt>
<trkpt lat="46.49329" lon="6.73728"><ele>458</ele><time>2021-05-13T15:25:32Z</time></trkpt>
<trkpt lat="46.49322" lon="6.73756"><ele>456.2</ele><time>2021-05-13T15:25:36Z</time></trkpt>
<trkpt lat="46.4932" lon="6.73762"><ele>455.8</ele><time>2021-05-13T15:25:37Z</time></trkpt>
<trkpt lat="46.49309" lon="6.73787"><ele>454</ele><time>2021-05-13T15:25:41Z</time></trkpt>
<trkpt lat="46.49299" lon="6.73816"><ele>444.8</ele><time>2021-05-13T15:25:46Z</time></trkpt>
<trkpt lat="46.49291" lon="6.73841"><ele>443.6</ele><time>2021-05-13T15:25:50Z</time></trkpt>
<trkpt lat="46.49285" lon="6.73865"><ele>443.2</ele><time>2021-05-13T15:25:54Z</time></trkpt>
<trkpt lat="46.49283" lon="6.73877"><ele>443.4</ele><time>2021-05-13T15:25:56Z</time></trkpt>
<trkpt lat="46.49279" lon="6.73905"><ele>443.2</ele><time>2021-05-13T15:26:01Z</time></trkpt>
<trkpt lat="46.49279" lon="6.73936"><ele>444</ele><time>2021-05-13T15:26:07Z</time></trkpt>
<trkpt lat="46.4928" lon="6.73965"><ele>444.8</ele><time>2021-05-13T15:26:13Z</time></trkpt>
<trkpt lat="46.49282" lon="6.73993"><ele>445.8</ele><time>2021-05-13T15:26:19Z</time></trkpt>
<trkpt lat="46.49284" lon="6.74021"><ele>446.4</ele><time>2021-05-13T15:26:25Z</time></trkpt>
<trkpt lat="46.49282" lon="6.74049"><ele>447.4</ele><time>2021-05-13T15:26:31Z</time></trkpt>
<trkpt lat="46.49278" lon="6.74075"><ele>448.2</ele><time>2021-05-13T15:26:37Z</time></trkpt>
<trkpt lat="46.49269" lon="6.74119"><ele>450</ele><time>2021-05-13T15:26:47Z</time></trkpt>
<trkpt lat="46.49263" lon="6.74145"><ele>451</ele><time>2021-05-13T15:26:53Z</time></trkpt>
<trkpt lat="46.49258" lon="6.74172"><ele>452.2</ele><time>2021-05-13T15:26:59Z</time></trkpt>
<trkpt lat="46.49254" lon="6.74199"><ele>453.4</ele><time>2021-05-13T15:27:05Z</time></trkpt>
<trkpt lat="46.49255" lon="6.74226"><ele>454.2</ele><time>2021-05-13T15:27:11Z</time></trkpt>
<trkpt lat="46.49261" lon="6.74254"><ele>455</ele><time>2021-05-13T15:27:17Z</time></trkpt>
<trkpt lat="46.49262" lon="6.74283"><ele>456</ele><time>2021-05-13T15:27:23Z</time></trkpt>
<trkpt lat="46.49257" lon="6.74308"><ele>456.6</ele><time>2021-05-13T15:27:29Z</time></trkpt>
<trkpt lat="46.49254" lon="6.74315"><ele>457</ele><time>2021-05-13T15:27:31Z</time></trkpt>
<trkpt lat="46.49246" lon="6.74327"><ele>458.2</ele><time>2021-05-13T15:27:37Z</time></trkpt>
<trkpt lat="46.49235" lon="6.74347"><ele>459.8</ele><time>2021-05-13T15:27:51Z</time></trkpt>
<trkpt lat="46.49236" lon="6.74348"><ele>460.2</ele><time>2021-05-13T15:28:03Z</time></trkpt>
<trkpt lat="46.49235" lon="6.74348"><ele>460.6</ele><time>2021-05-13T15:28:11Z</time></trkpt>
<trkpt lat="46.49235" lon="6.74348"><ele>460.8</ele><time>2021-05-13T15:28:16Z</time></trkpt>
<trkpt lat="46.49235" lon="6.74348"><ele>460.8</ele><time>2021-05-13T15:28:20Z</time></trkpt>
<trkpt lat="46.49236" lon="6.74348"><ele>461</ele><time>2021-05-13T15:28:27Z</time></trkpt>
<trkpt lat="46.49236" lon="6.74347"><ele>460.6</ele><time>2021-05-13T15:28:34Z</time></trkpt>
<trkpt lat="46.49233" lon="6.74369"><ele>460.2</ele><time>2021-05-13T15:28:48Z</time></trkpt>
<trkpt lat="46.49232" lon="6.74398"><ele>459</ele><time>2021-05-13T15:28:53Z</time></trkpt>
<trkpt lat="46.49232" lon="6.74418"><ele>458.2</ele><time>2021-05-13T15:28:56Z</time></trkpt>
<trkpt lat="46.49236" lon="6.74438"><ele>457.6</ele><time>2021-05-13T15:28:59Z</time></trkpt>
<trkpt lat="46.49242" lon="6.74452"><ele>457</ele><time>2021-05-13T15:29:01Z</time></trkpt>
<trkpt lat="46.4925" lon="6.74467"><ele>457</ele><time>2021-05-13T15:29:03Z</time></trkpt>
<trkpt lat="46.49252" lon="6.74497"><ele>458.2</ele><time>2021-05-13T15:29:07Z</time></trkpt>
<trkpt lat="46.49243" lon="6.74516"><ele>458</ele><time>2021-05-13T15:29:11Z</time></trkpt>
<trkpt lat="46.49229" lon="6.74535"><ele>457.8</ele><time>2021-05-13T15:29:16Z</time></trkpt>
<trkpt lat="46.49226" lon="6.74539"><ele>457.8</ele><time>2021-05-13T15:29:17Z</time></trkpt>
<trkpt lat="46.49209" lon="6.74559"><ele>457.6</ele><time>2021-05-13T15:29:21Z</time></trkpt>
<trkpt lat="46.49205" lon="6.74564"><ele>457</ele><time>2021-05-13T15:29:22Z</time></trkpt>
<trkpt lat="46.49197" lon="6.74586"><ele>454.6</ele><time>2021-05-13T15:29:25Z</time></trkpt>
<trkpt lat="46.49195" lon="6.74594"><ele>454.4</ele><time>2021-05-13T15:29:26Z</time></trkpt>
<trkpt lat="46.49191" lon="6.7462"><ele>454</ele><time>2021-05-13T15:29:29Z</time></trkpt>
<trkpt lat="46.49187" lon="6.74647"><ele>453.8</ele><time>2021-05-13T15:29:32Z</time></trkpt>
<trkpt lat="46.49182" lon="6.74674"><ele>452.6</ele><time>2021-05-13T15:29:35Z</time></trkpt>
<trkpt lat="46.49178" lon="6.74699"><ele>452.2</ele><time>2021-05-13T15:29:38Z</time></trkpt>
<trkpt lat="46.49175" lon="6.74715"><ele>452.2</ele><time>2021-05-13T15:29:40Z</time></trkpt>
<trkpt lat="46.49168" lon="6.74734"><ele>450</ele><time>2021-05-13T15:29:45Z</time></trkpt>
<trkpt lat="46.49165" lon="6.74738"><ele>450</ele><time>2021-05-13T15:29:49Z</time></trkpt>
<trkpt lat="46.49166" lon="6.74737"><ele>450.6</ele><time>2021-05-13T15:29:53Z</time></trkpt>
<trkpt lat="46.49166" lon="6.74737"><ele>450.6</ele><time>2021-05-13T15:29:54Z</time></trkpt>
<trkpt lat="46.49165" lon="6.74736"><ele>450.6</ele><time>2021-05-13T15:30:01Z</time></trkpt>
<trkpt lat="46.49166" lon="6.74737"><ele>452.4</ele><time>2021-05-13T15:30:19Z</time></trkpt>
<trkpt lat="46.49166" lon="6.74738"><ele>453.4</ele><time>2021-05-13T15:30:26Z</time></trkpt>
<trkpt lat="46.49166" lon="6.74738"><ele>455.6</ele><time>2021-05-13T15:30:36Z</time></trkpt>
<trkpt lat="46.49167" lon="6.74737"><ele>457.4</ele><time>2021-05-13T15:31:10Z</time></trkpt>
<trkpt lat="46.49167" lon="6.74737"><ele>457</ele><time>2021-05-13T15:31:14Z</time></trkpt>
<trkpt lat="46.49167" lon="6.74737"><ele>457</ele><time>2021-05-13T15:31:15Z</time></trkpt>
<trkpt lat="46.49167" lon="6.74737"><ele>457.2</ele><time>2021-05-13T15:31:22Z</time></trkpt>
<trkpt lat="46.49167" lon="6.74737"><ele>457.2</ele><time>2021-05-13T15:31:23Z</time></trkpt>
<trkpt lat="46.49167" lon="6.74737"><ele>457.4</ele><time>2021-05-13T15:31:25Z</time></trkpt>
<trkpt lat="46.49167" lon="6.74737"><ele>457.6</ele><time>2021-05-13T15:31:32Z</time></trkpt>
<trkpt lat="46.49167" lon="6.74736"><ele>457.4</ele><time>2021-05-13T15:31:44Z</time></trkpt>
<trkpt lat="46.49167" lon="6.74738"><ele>457.4</ele><time>2021-05-13T15:31:56Z</time></trkpt>
<trkpt lat="46.49167" lon="6.74739"><ele>457.6</ele><time>2021-05-13T15:31:58Z</time></trkpt>
<trkpt lat="46.49156" lon="6.74765"><ele>458</ele><time>2021-05-13T15:32:13Z</time></trkpt>
<trkpt lat="46.49147" lon="6.74779"><ele>457.4</ele><time>2021-05-13T15:32:16Z</time></trkpt>
<trkpt lat="46.49143" lon="6.74784"><ele>457.4</ele><time>2021-05-13T15:32:17Z</time></trkpt>
<trkpt lat="46.49135" lon="6.74795"><ele>457</ele><time>2021-05-13T15:32:19Z</time></trkpt>
<trkpt lat="46.49129" lon="6.74807"><ele>456.6</ele><time>2021-05-13T15:32:21Z</time></trkpt>
<trkpt lat="46.49124" lon="6.74819"><ele>456.8</ele><time>2021-05-13T15:32:23Z</time></trkpt>
<trkpt lat="46.4912" lon="6.74824"><ele>456.6</ele><time>2021-05-13T15:32:24Z</time></trkpt>
<trkpt lat="46.49114" lon="6.74832"><ele>456.6</ele><time>2021-05-13T15:32:26Z</time></trkpt>
<trkpt lat="46.49096" lon="6.74851"><ele>456.2</ele><time>2021-05-13T15:32:31Z</time></trkpt>
<trkpt lat="46.49079" lon="6.74861"><ele>455.8</ele><time>2021-05-13T15:32:35Z</time></trkpt>
<trkpt lat="46.49059" lon="6.74872"><ele>455</ele><time>2021-05-13T15:32:40Z</time></trkpt>
<trkpt lat="46.49057" lon="6.74875"><ele>454.6</ele><time>2021-05-13T15:32:41Z</time></trkpt>
<trkpt lat="46.49057" lon="6.74888"><ele>455</ele><time>2021-05-13T15:32:46Z</time></trkpt>
<trkpt lat="46.4906" lon="6.74894"><ele>455.4</ele><time>2021-05-13T15:32:50Z</time></trkpt>
<trkpt lat="46.49061" lon="6.74895"><ele>455.6</ele><time>2021-05-13T15:32:51Z</time></trkpt>
<trkpt lat="46.49062" lon="6.74896"><ele>455.8</ele><time>2021-05-13T15:32:52Z</time></trkpt>
<trkpt lat="46.49063" lon="6.74898"><ele>456.2</ele><time>2021-05-13T15:32:53Z</time></trkpt>
<trkpt lat="46.49066" lon="6.74902"><ele>456.8</ele><time>2021-05-13T15:32:56Z</time></trkpt>
<trkpt lat="46.49067" lon="6.74902"><ele>457</ele><time>2021-05-13T15:32:57Z</time></trkpt>
<trkpt lat="46.49067" lon="6.74903"><ele>457.2</ele><time>2021-05-13T15:32:58Z</time></trkpt>
<trkpt lat="46.49081" lon="6.74921"><ele>462</ele><time>2021-05-13T15:33:18Z</time></trkpt>
<trkpt lat="46.49082" lon="6.74922"><ele>462.6</ele><time>2021-05-13T15:33:20Z</time></trkpt>
<trkpt lat="46.49088" lon="6.74932"><ele>465.2</ele><time>2021-05-13T15:33:29Z</time></trkpt>
<trkpt lat="46.49093" lon="6.7493"><ele>466.8</ele><time>2021-05-13T15:33:34Z</time></trkpt>
<trkpt lat="46.49098" lon="6.74939"><ele>468.6</ele><time>2021-05-13T15:33:42Z</time></trkpt>
<trkpt lat="46.49098" lon="6.74939"><ele>468.8</ele><time>2021-05-13T15:33:43Z</time></trkpt>
<trkpt lat="46.49107" lon="6.74938"><ele>470.8</ele><time>2021-05-13T15:33:55Z</time></trkpt>
<trkpt lat="46.4911" lon="6.74935"><ele>471.8</ele><time>2021-05-13T15:33:59Z</time></trkpt>
<trkpt lat="46.49111" lon="6.74934"><ele>472.2</ele><time>2021-05-13T15:34:01Z</time></trkpt>
<trkpt lat="46.49114" lon="6.74935"><ele>473.2</ele><time>2021-05-13T15:34:06Z</time></trkpt>
<trkpt lat="46.49128" lon="6.74934"><ele>477.8</ele><time>2021-05-13T15:34:25Z</time></trkpt>
<trkpt lat="46.49145" lon="6.7493"><ele>482.8</ele><time>2021-05-13T15:34:48Z</time></trkpt>
<trkpt lat="46.49158" lon="6.74929"><ele>485.8</ele><time>2021-05-13T15:35:04Z</time></trkpt>
<trkpt lat="46.49175" lon="6.74922"><ele>490.4</ele><time>2021-05-13T15:35:29Z</time></trkpt>
<trkpt lat="46.4918" lon="6.74916"><ele>491.8</ele><time>2021-05-13T15:35:35Z</time></trkpt>
<trkpt lat="46.49198" lon="6.74915"><ele>495.4</ele><time>2021-05-13T15:35:51Z</time></trkpt>
<trkpt lat="46.49207" lon="6.74912"><ele>497</ele><time>2021-05-13T15:35:58Z</time></trkpt>
<trkpt lat="46.49215" lon="6.74909"><ele>498.8</ele><time>2021-05-13T15:36:05Z</time></trkpt>
<trkpt lat="46.49233" lon="6.74902"><ele>502</ele><time>2021-05-13T15:36:21Z</time></trkpt>
<trkpt lat="46.49249" lon="6.7489"><ele>505.6</ele><time>2021-05-13T15:36:38Z</time></trkpt>
<trkpt lat="46.49264" lon="6.74874"><ele>507.2</ele><time>2021-05-13T15:36:53Z</time></trkpt>
<trkpt lat="46.49285" lon="6.74851"><ele>509.6</ele><time>2021-05-13T15:37:11Z</time></trkpt>
<trkpt lat="46.49293" lon="6.74842"><ele>510.8</ele><time>2021-05-13T15:37:19Z</time></trkpt>
<trkpt lat="46.49309" lon="6.74844"><ele>513.4</ele><time>2021-05-13T15:37:35Z</time></trkpt>
<trkpt lat="46.49312" lon="6.74857"><ele>515</ele><time>2021-05-13T15:37:45Z</time></trkpt>
<trkpt lat="46.49317" lon="6.74863"><ele>516.4</ele><time>2021-05-13T15:37:54Z</time></trkpt>
<trkpt lat="46.49315" lon="6.74869"><ele>517</ele><time>2021-05-13T15:37:58Z</time></trkpt>
<trkpt lat="46.49315" lon="6.74875"><ele>518.4</ele><time>2021-05-13T15:38:02Z</time></trkpt>
<trkpt lat="46.49311" lon="6.74893"><ele>521.2</ele><time>2021-05-13T15:38:14Z</time></trkpt>
<trkpt lat="46.4931" lon="6.74898"><ele>521.6</ele><time>2021-05-13T15:38:18Z</time></trkpt>
<trkpt lat="46.49307" lon="6.74909"><ele>523.2</ele><time>2021-05-13T15:38:27Z</time></trkpt>
<trkpt lat="46.49303" lon="6.74919"><ele>524.8</ele><time>2021-05-13T15:38:35Z</time></trkpt>
<trkpt lat="46.493" lon="6.74932"><ele>527</ele><time>2021-05-13T15:38:45Z</time></trkpt>
<trkpt lat="46.49299" lon="6.74936"><ele>527.4</ele><time>2021-05-13T15:38:48Z</time></trkpt>
<trkpt lat="46.49297" lon="6.74943"><ele>528.6</ele><time>2021-05-13T15:38:54Z</time></trkpt>
<trkpt lat="46.49288" lon="6.74965"><ele>532.8</ele><time>2021-05-13T15:39:12Z</time></trkpt>
<trkpt lat="46.49278" lon="6.74987"><ele>537.2</ele><time>2021-05-13T15:39:29Z</time></trkpt>
<trkpt lat="46.49269" lon="6.75011"><ele>540.4</ele><time>2021-05-13T15:39:46Z</time></trkpt>
<trkpt lat="46.49262" lon="6.75035"><ele>544</ele><time>2021-05-13T15:40:03Z</time></trkpt>
<trkpt lat="46.49256" lon="6.75056"><ele>546.4</ele><time>2021-05-13T15:40:20Z</time></trkpt>
<trkpt lat="46.49243" lon="6.75084"><ele>550.2</ele><time>2021-05-13T15:40:43Z</time></trkpt>
<trkpt lat="46.49231" lon="6.75103"><ele>553.4</ele><time>2021-05-13T15:40:59Z</time></trkpt>
<trkpt lat="46.49228" lon="6.75108"><ele>554</ele><time>2021-05-13T15:41:03Z</time></trkpt>
<trkpt lat="46.49219" lon="6.75132"><ele>558.4</ele><time>2021-05-13T15:41:21Z</time></trkpt>
<trkpt lat="46.49212" lon="6.75157"><ele>562.4</ele><time>2021-05-13T15:41:39Z</time></trkpt>
<trkpt lat="46.49202" lon="6.75187"><ele>566.8</ele><time>2021-05-13T15:42:01Z</time></trkpt>
<trkpt lat="46.49198" lon="6.75213"><ele>569.6</ele><time>2021-05-13T15:42:19Z</time></trkpt>
<trkpt lat="46.49198" lon="6.75213"><ele>569.4</ele><time>2021-05-13T15:42:20Z</time></trkpt>
<trkpt lat="46.49199" lon="6.75213"><ele>570</ele><time>2021-05-13T15:42:45Z</time></trkpt>
<trkpt lat="46.49199" lon="6.75215"><ele>570.4</ele><time>2021-05-13T15:42:51Z</time></trkpt>
<trkpt lat="46.49198" lon="6.75214"><ele>570.6</ele><time>2021-05-13T15:42:56Z</time></trkpt>
<trkpt lat="46.49199" lon="6.75214"><ele>570.6</ele><time>2021-05-13T15:42:59Z</time></trkpt>
<trkpt lat="46.49198" lon="6.75215"><ele>570.4</ele><time>2021-05-13T15:43:08Z</time></trkpt>
<trkpt lat="46.49199" lon="6.75214"><ele>570.4</ele><time>2021-05-13T15:43:28Z</time></trkpt>
<trkpt lat="46.49199" lon="6.75213"><ele>570</ele><time>2021-05-13T15:43:30Z</time></trkpt>
<trkpt lat="46.49202" lon="6.75218"><ele>570</ele><time>2021-05-13T15:43:50Z</time></trkpt>
<trkpt lat="46.49199" lon="6.7523"><ele>571.6</ele><time>2021-05-13T15:43:59Z</time></trkpt>
<trkpt lat="46.49199" lon="6.75237"><ele>572.6</ele><time>2021-05-13T15:44:05Z</time></trkpt>
<trkpt lat="46.49199" lon="6.75247"><ele>573.6</ele><time>2021-05-13T15:44:13Z</time></trkpt>
<trkpt lat="46.49198" lon="6.75249"><ele>573.8</ele><time>2021-05-13T15:44:15Z</time></trkpt>
<trkpt lat="46.49198" lon="6.75254"><ele>574.4</ele><time>2021-05-13T15:44:20Z</time></trkpt>
<trkpt lat="46.49198" lon="6.75258"><ele>574.6</ele><time>2021-05-13T15:44:23Z</time></trkpt>
<trkpt lat="46.49197" lon="6.75268"><ele>575.6</ele><time>2021-05-13T15:44:30Z</time></trkpt>
<trkpt lat="46.49197" lon="6.75275"><ele>576</ele><time>2021-05-13T15:44:35Z</time></trkpt>
<trkpt lat="46.49196" lon="6.75285"><ele>577.2</ele><time>2021-05-13T15:44:42Z</time></trkpt>
<trkpt lat="46.49195" lon="6.75287"><ele>577.4</ele><time>2021-05-13T15:44:44Z</time></trkpt>
<trkpt lat="46.49193" lon="6.75297"><ele>578.6</ele><time>2021-05-13T15:44:51Z</time></trkpt>
<trkpt lat="46.49184" lon="6.7532"><ele>580.6</ele><time>2021-05-13T15:45:07Z</time></trkpt>
<trkpt lat="46.49173" lon="6.75342"><ele>581.6</ele><time>2021-05-13T15:45:23Z</time></trkpt>
<trkpt lat="46.49163" lon="6.75361"><ele>584.4</ele><time>2021-05-13T15:45:38Z</time></trkpt>
<trkpt lat="46.49156" lon="6.75365"><ele>585.2</ele><time>2021-05-13T15:45:45Z</time></trkpt>
<trkpt lat="46.49153" lon="6.75366"><ele>585.4</ele><time>2021-05-13T15:45:48Z</time></trkpt>
<trkpt lat="46.49151" lon="6.75365"><ele>585.6</ele><time>2021-05-13T15:45:50Z</time></trkpt>
<trkpt lat="46.49145" lon="6.7537"><ele>587</ele><time>2021-05-13T15:45:58Z</time></trkpt>
<trkpt lat="46.49132" lon="6.75378"><ele>589.2</ele><time>2021-05-13T15:46:15Z</time></trkpt>
<trkpt lat="46.49116" lon="6.75391"><ele>592.2</ele><time>2021-05-13T15:46:37Z</time></trkpt>
<trkpt lat="46.49099" lon="6.75403"><ele>594.8</ele><time>2021-05-13T15:46:58Z</time></trkpt>
<trkpt lat="46.49085" lon="6.75418"><ele>598</ele><time>2021-05-13T15:47:16Z</time></trkpt>
<trkpt lat="46.49077" lon="6.75433"><ele>600.8</ele><time>2021-05-13T15:47:28Z</time></trkpt>
<trkpt lat="46.49069" lon="6.75455"><ele>605.6</ele><time>2021-05-13T15:47:46Z</time></trkpt>
<trkpt lat="46.49062" lon="6.75473"><ele>608</ele><time>2021-05-13T15:48:02Z</time></trkpt>
<trkpt lat="46.49053" lon="6.75497"><ele>612.2</ele><time>2021-05-13T15:48:22Z</time></trkpt>
<trkpt lat="46.49053" lon="6.75498"><ele>612.4</ele><time>2021-05-13T15:48:23Z</time></trkpt>
<trkpt lat="46.49046" lon="6.75521"><ele>616.2</ele><time>2021-05-13T15:48:43Z</time></trkpt>
<trkpt lat="46.49038" lon="6.75553"><ele>620.8</ele><time>2021-05-13T15:49:08Z</time></trkpt>
<trkpt lat="46.49037" lon="6.75556"><ele>621</ele><time>2021-05-13T15:49:10Z</time></trkpt>
<trkpt lat="46.49036" lon="6.75565"><ele>621.6</ele><time>2021-05-13T15:49:17Z</time></trkpt>
<trkpt lat="46.49034" lon="6.75581"><ele>624.2</ele><time>2021-05-13T15:49:28Z</time></trkpt>
<trkpt lat="46.49034" lon="6.75587"><ele>625</ele><time>2021-05-13T15:49:32Z</time></trkpt>
<trkpt lat="46.49033" lon="6.75593"><ele>625.6</ele><time>2021-05-13T15:49:36Z</time></trkpt>
<trkpt lat="46.49034" lon="6.75596"><ele>626.2</ele><time>2021-05-13T15:49:39Z</time></trkpt>
<trkpt lat="46.49032" lon="6.75613"><ele>628</ele><time>2021-05-13T15:49:53Z</time></trkpt>
<trkpt lat="46.49032" lon="6.7562"><ele>628.8</ele><time>2021-05-13T15:49:59Z</time></trkpt>
<trkpt lat="46.49032" lon="6.75624"><ele>629.2</ele><time>2021-05-13T15:50:02Z</time></trkpt>
<trkpt lat="46.49028" lon="6.75632"><ele>630.2</ele><time>2021-05-13T15:50:08Z</time></trkpt>
<trkpt lat="46.49026" lon="6.75639"><ele>631</ele><time>2021-05-13T15:50:13Z</time></trkpt>
<trkpt lat="46.49018" lon="6.75663"><ele>632.8</ele><time>2021-05-13T15:50:29Z</time></trkpt>
<trkpt lat="46.49007" lon="6.75695"><ele>635.4</ele><time>2021-05-13T15:50:47Z</time></trkpt>
<trkpt lat="46.48999" lon="6.7572"><ele>637.4</ele><time>2021-05-13T15:50:58Z</time></trkpt>
<trkpt lat="46.49" lon="6.75748"><ele>638.6</ele><time>2021-05-13T15:51:07Z</time></trkpt>
<trkpt lat="46.49005" lon="6.75767"><ele>639.4</ele><time>2021-05-13T15:51:13Z</time></trkpt>
<trkpt lat="46.49018" lon="6.75802"><ele>640.4</ele><time>2021-05-13T15:51:25Z</time></trkpt>
<trkpt lat="46.49028" lon="6.75824"><ele>640.4</ele><time>2021-05-13T15:51:32Z</time></trkpt>
<trkpt lat="46.49036" lon="6.7584"><ele>640.4</ele><time>2021-05-13T15:51:37Z</time></trkpt>
<trkpt lat="46.49043" lon="6.75856"><ele>640.6</ele><time>2021-05-13T15:51:41Z</time></trkpt>
<trkpt lat="46.49055" lon="6.7588"><ele>640.2</ele><time>2021-05-13T15:51:46Z</time></trkpt>
<trkpt lat="46.49071" lon="6.75902"><ele>640</ele><time>2021-05-13T15:51:51Z</time></trkpt>
<trkpt lat="46.49085" lon="6.75919"><ele>640</ele><time>2021-05-13T15:51:55Z</time></trkpt>
<trkpt lat="46.49096" lon="6.75932"><ele>639.8</ele><time>2021-05-13T15:51:58Z</time></trkpt>
<trkpt lat="46.49107" lon="6.75946"><ele>639.6</ele><time>2021-05-13T15:52:01Z</time></trkpt>
<trkpt lat="46.4912" lon="6.75968"><ele>639.6</ele><time>2021-05-13T15:52:05Z</time></trkpt>
<trkpt lat="46.49134" lon="6.75985"><ele>640.4</ele><time>2021-05-13T15:52:10Z</time></trkpt>
<trkpt lat="46.4914" lon="6.75989"><ele>641.2</ele><time>2021-05-13T15:52:13Z</time></trkpt>
<trkpt lat="46.49153" lon="6.75995"><ele>646</ele><time>2021-05-13T15:52:26Z</time></trkpt>
<trkpt lat="46.49159" lon="6.76003"><ele>647.8</ele><time>2021-05-13T15:52:34Z</time></trkpt>
<trkpt lat="46.49161" lon="6.76006"><ele>648.2</ele><time>2021-05-13T15:52:36Z</time></trkpt>
<trkpt lat="46.49164" lon="6.7601"><ele>649.8</ele><time>2021-05-13T15:52:41Z</time></trkpt>
<trkpt lat="46.49169" lon="6.76014"><ele>651.4</ele><time>2021-05-13T15:52:48Z</time></trkpt>
<trkpt lat="46.49172" lon="6.76021"><ele>652.2</ele><time>2021-05-13T15:52:55Z</time></trkpt>
<trkpt lat="46.49173" lon="6.76023"><ele>652.4</ele><time>2021-05-13T15:52:57Z</time></trkpt>
<trkpt lat="46.49176" lon="6.76028"><ele>653</ele><time>2021-05-13T15:53:01Z</time></trkpt>
<trkpt lat="46.49183" lon="6.7604"><ele>655.2</ele><time>2021-05-13T15:53:14Z</time></trkpt>
<trkpt lat="46.49187" lon="6.76047"><ele>656.6</ele><time>2021-05-13T15:53:22Z</time></trkpt>
<trkpt lat="46.49204" lon="6.76053"><ele>660.2</ele><time>2021-05-13T15:53:46Z</time></trkpt>
<trkpt lat="46.49209" lon="6.76051"><ele>660.6</ele><time>2021-05-13T15:53:51Z</time></trkpt>
<trkpt lat="46.49228" lon="6.7605"><ele>663</ele><time>2021-05-13T15:54:04Z</time></trkpt>
<trkpt lat="46.49246" lon="6.76053"><ele>664.8</ele><time>2021-05-13T15:54:16Z</time></trkpt>
<trkpt lat="46.49275" lon="6.76054"><ele>666.4</ele><time>2021-05-13T15:54:29Z</time></trkpt>
<trkpt lat="46.49292" lon="6.76043"><ele>667.2</ele><time>2021-05-13T15:54:37Z</time></trkpt>
<trkpt lat="46.49307" lon="6.76026"><ele>667.2</ele><time>2021-05-13T15:54:44Z</time></trkpt>
<trkpt lat="46.49322" lon="6.7601"><ele>668.4</ele><time>2021-05-13T15:54:51Z</time></trkpt>
<trkpt lat="46.49332" lon="6.76007"><ele>668.6</ele><time>2021-05-13T15:54:55Z</time></trkpt>
<trkpt lat="46.49352" lon="6.76006"><ele>669.8</ele><time>2021-05-13T15:55:03Z</time></trkpt>
<trkpt lat="46.49371" lon="6.76011"><ele>672.8</ele><time>2021-05-13T15:55:12Z</time></trkpt>
<trkpt lat="46.4939" lon="6.76014"><ele>674.6</ele><time>2021-05-13T15:55:23Z</time></trkpt>
<trkpt lat="46.49408" lon="6.76013"><ele>674.8</ele><time>2021-05-13T15:55:31Z</time></trkpt>
<trkpt lat="46.49427" lon="6.76012"><ele>675.8</ele><time>2021-05-13T15:55:39Z</time></trkpt>
<trkpt lat="46.49446" lon="6.76012"><ele>676.4</ele><time>2021-05-13T15:55:45Z</time></trkpt>
<trkpt lat="46.49465" lon="6.76014"><ele>675</ele><time>2021-05-13T15:55:52Z</time></trkpt>
<trkpt lat="46.49501" lon="6.7602"><ele>675.2</ele><time>2021-05-13T15:56:04Z</time></trkpt>
<trkpt lat="46.4952" lon="6.76025"><ele>675.8</ele><time>2021-05-13T15:56:12Z</time></trkpt>
<trkpt lat="46.49539" lon="6.76031"><ele>676.6</ele><time>2021-05-13T15:56:20Z</time></trkpt>
<trkpt lat="46.49556" lon="6.76037"><ele>678.8</ele><time>2021-05-13T15:56:30Z</time></trkpt>
<trkpt lat="46.49575" lon="6.76045"><ele>679.8</ele><time>2021-05-13T15:56:41Z</time></trkpt>
<trkpt lat="46.49594" lon="6.7605"><ele>680.8</ele><time>2021-05-13T15:56:51Z</time></trkpt>
<trkpt lat="46.49612" lon="6.76054"><ele>682.6</ele><time>2021-05-13T15:57:01Z</time></trkpt>
<trkpt lat="46.49637" lon="6.76068"><ele>685.4</ele><time>2021-05-13T15:57:17Z</time></trkpt>
<trkpt lat="46.49653" lon="6.76084"><ele>687.2</ele><time>2021-05-13T15:57:28Z</time></trkpt>
<trkpt lat="46.49667" lon="6.76103"><ele>688</ele><time>2021-05-13T15:57:37Z</time></trkpt>
<trkpt lat="46.4968" lon="6.76123"><ele>689</ele><time>2021-05-13T15:57:46Z</time></trkpt>
<trkpt lat="46.49696" lon="6.76149"><ele>688.4</ele><time>2021-05-13T15:57:54Z</time></trkpt>
<trkpt lat="46.49707" lon="6.76158"><ele>687.6</ele><time>2021-05-13T15:57:57Z</time></trkpt>
<trkpt lat="46.49712" lon="6.7616"><ele>687.2</ele><time>2021-05-13T15:57:59Z</time></trkpt>
<trkpt lat="46.49728" lon="6.76154"><ele>687</ele><time>2021-05-13T15:58:02Z</time></trkpt>
<trkpt lat="46.49744" lon="6.76135"><ele>687.6</ele><time>2021-05-13T15:58:06Z</time></trkpt>
<trkpt lat="46.49761" lon="6.76111"><ele>690</ele><time>2021-05-13T15:58:17Z</time></trkpt>
<trkpt lat="46.49773" lon="6.76089"><ele>693.2</ele><time>2021-05-13T15:58:30Z</time></trkpt>
<trkpt lat="46.49777" lon="6.76082"><ele>693.8</ele><time>2021-05-13T15:58:34Z</time></trkpt>
<trkpt lat="46.49779" lon="6.76077"><ele>694.4</ele><time>2021-05-13T15:58:38Z</time></trkpt>
<trkpt lat="46.4979" lon="6.76062"><ele>696</ele><time>2021-05-13T15:58:49Z</time></trkpt>
<trkpt lat="46.49794" lon="6.76054"><ele>696.4</ele><time>2021-05-13T15:58:53Z</time></trkpt>
<trkpt lat="46.49796" lon="6.76051"><ele>696.6</ele><time>2021-05-13T15:58:55Z</time></trkpt>
<trkpt lat="46.49811" lon="6.76036"><ele>698.4</ele><time>2021-05-13T15:59:07Z</time></trkpt>
<trkpt lat="46.49829" lon="6.76025"><ele>700.4</ele><time>2021-05-13T15:59:20Z</time></trkpt>
<trkpt lat="46.49847" lon="6.7602"><ele>703.4</ele><time>2021-05-13T15:59:33Z</time></trkpt>
<trkpt lat="46.49872" lon="6.76019"><ele>705.4</ele><time>2021-05-13T15:59:49Z</time></trkpt>
<trkpt lat="46.4989" lon="6.76014"><ele>706.8</ele><time>2021-05-13T15:59:59Z</time></trkpt>
<trkpt lat="46.49908" lon="6.76003"><ele>707.6</ele><time>2021-05-13T16:00:09Z</time></trkpt>
<trkpt lat="46.49925" lon="6.75988"><ele>707.6</ele><time>2021-05-13T16:00:18Z</time></trkpt>
<trkpt lat="46.49939" lon="6.75971"><ele>708.4</ele><time>2021-05-13T16:00:23Z</time></trkpt>
<trkpt lat="46.49952" lon="6.75952"><ele>708.2</ele><time>2021-05-13T16:00:31Z</time></trkpt>
<trkpt lat="46.49962" lon="6.75942"><ele>710</ele><time>2021-05-13T16:00:36Z</time></trkpt>
<trkpt lat="46.49968" lon="6.75938"><ele>711.4</ele><time>2021-05-13T16:00:41Z</time></trkpt>
<trkpt lat="46.49978" lon="6.75933"><ele>715</ele><time>2021-05-13T16:00:48Z</time></trkpt>
<trkpt lat="46.49986" lon="6.7593"><ele>715.6</ele><time>2021-05-13T16:00:55Z</time></trkpt>
<trkpt lat="46.5" lon="6.75912"><ele>719</ele><time>2021-05-13T16:01:06Z</time></trkpt>
<trkpt lat="46.50007" lon="6.759"><ele>719.2</ele><time>2021-05-13T16:01:15Z</time></trkpt>
<trkpt lat="46.50021" lon="6.75879"><ele>721.8</ele><time>2021-05-13T16:01:30Z</time></trkpt>
<trkpt lat="46.50025" lon="6.75874"><ele>723.2</ele><time>2021-05-13T16:01:34Z</time></trkpt>
<trkpt lat="46.5003" lon="6.75869"><ele>724.6</ele><time>2021-05-13T16:01:39Z</time></trkpt>
<trkpt lat="46.50033" lon="6.75866"><ele>725.6</ele><time>2021-05-13T16:01:42Z</time></trkpt>
<trkpt lat="46.50039" lon="6.75862"><ele>727.8</ele><time>2021-05-13T16:01:46Z</time></trkpt>
<trkpt lat="46.50048" lon="6.75857"><ele>730.2</ele><time>2021-05-13T16:01:53Z</time></trkpt>
<trkpt lat="46.50052" lon="6.75854"><ele>730.8</ele><time>2021-05-13T16:01:58Z</time></trkpt>
<trkpt lat="46.50053" lon="6.75852"><ele>731</ele><time>2021-05-13T16:02:00Z</time></trkpt>
<trkpt lat="46.50065" lon="6.7583"><ele>734.4</ele><time>2021-05-13T16:02:16Z</time></trkpt>
<trkpt lat="46.50065" lon="6.75827"><ele>734.6</ele><time>2021-05-13T16:02:18Z</time></trkpt>
<trkpt lat="46.50062" lon="6.75812"><ele>736</ele><time>2021-05-13T16:02:30Z</time></trkpt>
<trkpt lat="46.50042" lon="6.75795"><ele>738.2</ele><time>2021-05-13T16:02:52Z</time></trkpt>
<trkpt lat="46.50033" lon="6.75788"><ele>739</ele><time>2021-05-13T16:03:03Z</time></trkpt>
<trkpt lat="46.50021" lon="6.75779"><ele>740.8</ele><time>2021-05-13T16:03:17Z</time></trkpt>
<trkpt lat="46.50019" lon="6.75778"><ele>741.4</ele><time>2021-05-13T16:03:21Z</time></trkpt>
<trkpt lat="46.50004" lon="6.75762"><ele>743.8</ele><time>2021-05-13T16:03:39Z</time></trkpt>
<trkpt lat="46.49997" lon="6.75743"><ele>745</ele><time>2021-05-13T16:03:52Z</time></trkpt>
<trkpt lat="46.49991" lon="6.75727"><ele>746.2</ele><time>2021-05-13T16:04:04Z</time></trkpt>
<trkpt lat="46.49983" lon="6.75704"><ele>747.4</ele><time>2021-05-13T16:04:19Z</time></trkpt>
<trkpt lat="46.49974" lon="6.75681"><ele>749.8</ele><time>2021-05-13T16:04:36Z</time></trkpt>
<trkpt lat="46.4997" lon="6.75672"><ele>750.6</ele><time>2021-05-13T16:04:43Z</time></trkpt>
<trkpt lat="46.4997" lon="6.7567"><ele>751</ele><time>2021-05-13T16:04:45Z</time></trkpt>
<trkpt lat="46.49964" lon="6.75656"><ele>752.6</ele><time>2021-05-13T16:04:56Z</time></trkpt>
<trkpt lat="46.49963" lon="6.75654"><ele>753</ele><time>2021-05-13T16:04:58Z</time></trkpt>
<trkpt lat="46.49955" lon="6.75631"><ele>755.6</ele><time>2021-05-13T16:05:16Z</time></trkpt>
<trkpt lat="46.4995" lon="6.75623"><ele>756.8</ele><time>2021-05-13T16:05:24Z</time></trkpt>
<trkpt lat="46.49948" lon="6.75616"><ele>757.6</ele><time>2021-05-13T16:05:31Z</time></trkpt>
<trkpt lat="46.49947" lon="6.75611"><ele>758.2</ele><time>2021-05-13T16:05:34Z</time></trkpt>
<trkpt lat="46.49946" lon="6.75604"><ele>759</ele><time>2021-05-13T16:05:40Z</time></trkpt>
<trkpt lat="46.49945" lon="6.75592"><ele>760.6</ele><time>2021-05-13T16:05:49Z</time></trkpt>
<trkpt lat="46.49948" lon="6.75587"><ele>761.4</ele><time>2021-05-13T16:05:54Z</time></trkpt>
<trkpt lat="46.49961" lon="6.7557"><ele>763.6</ele><time>2021-05-13T16:06:13Z</time></trkpt>
<trkpt lat="46.4998" lon="6.75572"><ele>765.8</ele><time>2021-05-13T16:06:32Z</time></trkpt>
<trkpt lat="46.49997" lon="6.7558"><ele>768</ele><time>2021-05-13T16:06:42Z</time></trkpt>
<trkpt lat="46.50011" lon="6.75592"><ele>769.2</ele><time>2021-05-13T16:06:48Z</time></trkpt>
<trkpt lat="46.50021" lon="6.75601"><ele>770</ele><time>2021-05-13T16:06:54Z</time></trkpt>
<trkpt lat="46.50034" lon="6.75612"><ele>770.8</ele><time>2021-05-13T16:06:59Z</time></trkpt>
<trkpt lat="46.50039" lon="6.75615"><ele>772.4</ele><time>2021-05-13T16:07:04Z</time></trkpt>
<trkpt lat="46.50044" lon="6.75616"><ele>773.6</ele><time>2021-05-13T16:07:08Z</time></trkpt>
<trkpt lat="46.50046" lon="6.75617"><ele>774</ele><time>2021-05-13T16:07:11Z</time></trkpt>
<trkpt lat="46.50054" lon="6.75615"><ele>775.4</ele><time>2021-05-13T16:07:18Z</time></trkpt>
<trkpt lat="46.50061" lon="6.75608"><ele>777</ele><time>2021-05-13T16:07:27Z</time></trkpt>
<trkpt lat="46.50063" lon="6.75604"><ele>777.8</ele><time>2021-05-13T16:07:31Z</time></trkpt>
<trkpt lat="46.50064" lon="6.75599"><ele>778.6</ele><time>2021-05-13T16:07:36Z</time></trkpt>
<trkpt lat="46.50065" lon="6.75595"><ele>779</ele><time>2021-05-13T16:07:38Z</time></trkpt>
<trkpt lat="46.50061" lon="6.75571"><ele>782.8</ele><time>2021-05-13T16:08:01Z</time></trkpt>
<trkpt lat="46.50056" lon="6.75556"><ele>784</ele><time>2021-05-13T16:08:12Z</time></trkpt>
<trkpt lat="46.50052" lon="6.75543"><ele>785.2</ele><time>2021-05-13T16:08:21Z</time></trkpt>
<trkpt lat="46.50048" lon="6.75528"><ele>787</ele><time>2021-05-13T16:08:30Z</time></trkpt>
<trkpt lat="46.50048" lon="6.75526"><ele>787.6</ele><time>2021-05-13T16:08:32Z</time></trkpt>
<trkpt lat="46.50044" lon="6.75512"><ele>787.8</ele><time>2021-05-13T16:08:42Z</time></trkpt>
<trkpt lat="46.50041" lon="6.75504"><ele>788.4</ele><time>2021-05-13T16:08:49Z</time></trkpt>
<trkpt lat="46.5004" lon="6.75498"><ele>788.8</ele><time>2021-05-13T16:08:53Z</time></trkpt>
<trkpt lat="46.50034" lon="6.7548"><ele>791</ele><time>2021-05-13T16:09:07Z</time></trkpt>
<trkpt lat="46.50029" lon="6.75465"><ele>793.2</ele><time>2021-05-13T16:09:19Z</time></trkpt>
<trkpt lat="46.50027" lon="6.7546"><ele>793.8</ele><time>2021-05-13T16:09:23Z</time></trkpt>
<trkpt lat="46.50026" lon="6.75456"><ele>794.2</ele><time>2021-05-13T16:09:25Z</time></trkpt>
<trkpt lat="46.50025" lon="6.75452"><ele>794.8</ele><time>2021-05-13T16:09:30Z</time></trkpt>
<trkpt lat="46.50021" lon="6.75438"><ele>796.6</ele><time>2021-05-13T16:09:39Z</time></trkpt>
<trkpt lat="46.50017" lon="6.75422"><ele>798.4</ele><time>2021-05-13T16:09:51Z</time></trkpt>
<trkpt lat="46.50017" lon="6.7542"><ele>798.6</ele><time>2021-05-13T16:09:54Z</time></trkpt>
<trkpt lat="46.50011" lon="6.75403"><ele>800.2</ele><time>2021-05-13T16:10:08Z</time></trkpt>
<trkpt lat="46.50008" lon="6.75385"><ele>800.6</ele><time>2021-05-13T16:10:19Z</time></trkpt>
<trkpt lat="46.50004" lon="6.7535"><ele>800.4</ele><time>2021-05-13T16:10:42Z</time></trkpt>
<trkpt lat="46.5001" lon="6.75324"><ele>802.4</ele><time>2021-05-13T16:11:01Z</time></trkpt>
<trkpt lat="46.50012" lon="6.75317"><ele>803.2</ele><time>2021-05-13T16:11:08Z</time></trkpt>
<trkpt lat="46.50015" lon="6.75307"><ele>804.6</ele><time>2021-05-13T16:11:16Z</time></trkpt>
<trkpt lat="46.50016" lon="6.75304"><ele>804.8</ele><time>2021-05-13T16:11:18Z</time></trkpt>
<trkpt lat="46.50017" lon="6.75302"><ele>804.8</ele><time>2021-05-13T16:11:20Z</time></trkpt>
<trkpt lat="46.50021" lon="6.75291"><ele>804.4</ele><time>2021-05-13T16:11:25Z</time></trkpt>
<trkpt lat="46.50035" lon="6.7527"><ele>802.6</ele><time>2021-05-13T16:11:30Z</time></trkpt>
<trkpt lat="46.50049" lon="6.75254"><ele>800.4</ele><time>2021-05-13T16:11:33Z</time></trkpt>
<trkpt lat="46.5006" lon="6.75239"><ele>799</ele><time>2021-05-13T16:11:35Z</time></trkpt>
<trkpt lat="46.50068" lon="6.75209"><ele>798.6</ele><time>2021-05-13T16:11:38Z</time></trkpt>
<trkpt lat="46.50064" lon="6.75181"><ele>798.2</ele><time>2021-05-13T16:11:41Z</time></trkpt>
<trkpt lat="46.50061" lon="6.75173"><ele>798.2</ele><time>2021-05-13T16:11:42Z</time></trkpt>
<trkpt lat="46.50059" lon="6.75165"><ele>798</ele><time>2021-05-13T16:11:43Z</time></trkpt>
<trkpt lat="46.50057" lon="6.7515"><ele>797.8</ele><time>2021-05-13T16:11:45Z</time></trkpt>
<trkpt lat="46.50056" lon="6.75129"><ele>798.2</ele><time>2021-05-13T16:11:48Z</time></trkpt>
<trkpt lat="46.50057" lon="6.75117"><ele>798</ele><time>2021-05-13T16:11:50Z</time></trkpt>
<trkpt lat="46.50059" lon="6.7511"><ele>798.4</ele><time>2021-05-13T16:11:52Z</time></trkpt>
<trkpt lat="46.50062" lon="6.75106"><ele>798.8</ele><time>2021-05-13T16:11:57Z</time></trkpt>
<trkpt lat="46.50062" lon="6.75106"><ele>798.8</ele><time>2021-05-13T16:11:58Z</time></trkpt>
<trkpt lat="46.50058" lon="6.75111"><ele>798.4</ele><time>2021-05-13T16:12:05Z</time></trkpt>
<trkpt lat="46.50058" lon="6.75111"><ele>798.8</ele><time>2021-05-13T16:12:11Z</time></trkpt>
<trkpt lat="46.50058" lon="6.75112"><ele>798.6</ele><time>2021-05-13T16:12:31Z</time></trkpt>
<trkpt lat="46.50057" lon="6.75113"><ele>799.8</ele><time>2021-05-13T16:13:00Z</time></trkpt>
<trkpt lat="46.50057" lon="6.75113"><ele>799.8</ele><time>2021-05-13T16:13:02Z</time></trkpt>
<trkpt lat="46.50057" lon="6.75112"><ele>800</ele><time>2021-05-13T16:13:08Z</time></trkpt>
<trkpt lat="46.50057" lon="6.75112"><ele>800</ele><time>2021-05-13T16:13:13Z</time></trkpt>
<trkpt lat="46.50068" lon="6.75101"><ele>800.4</ele><time>2021-05-13T16:13:31Z</time></trkpt>
<trkpt lat="46.50076" lon="6.75096"><ele>800.4</ele><time>2021-05-13T16:13:37Z</time></trkpt>
<trkpt lat="46.50093" lon="6.75083"><ele>801.6</ele><time>2021-05-13T16:13:47Z</time></trkpt>
<trkpt lat="46.5011" lon="6.75067"><ele>802</ele><time>2021-05-13T16:13:55Z</time></trkpt>
<trkpt lat="46.50126" lon="6.75051"><ele>803.2</ele><time>2021-05-13T16:14:02Z</time></trkpt>
<trkpt lat="46.50139" lon="6.75032"><ele>803.8</ele><time>2021-05-13T16:14:11Z</time></trkpt>
<trkpt lat="46.50144" lon="6.75023"><ele>804.2</ele><time>2021-05-13T16:14:17Z</time></trkpt>
<trkpt lat="46.5015" lon="6.75015"><ele>804.8</ele><time>2021-05-13T16:14:23Z</time></trkpt>
<trkpt lat="46.50151" lon="6.75013"><ele>805.2</ele><time>2021-05-13T16:14:25Z</time></trkpt>
<trkpt lat="46.50165" lon="6.74994"><ele>807.6</ele><time>2021-05-13T16:14:37Z</time></trkpt>
<trkpt lat="46.50172" lon="6.74985"><ele>807.2</ele><time>2021-05-13T16:14:40Z</time></trkpt>
<trkpt lat="46.50177" lon="6.7498"><ele>806.8</ele><time>2021-05-13T16:14:41Z</time></trkpt>
<trkpt lat="46.50185" lon="6.74971"><ele>806.2</ele><time>2021-05-13T16:14:43Z</time></trkpt>
<trkpt lat="46.50201" lon="6.74951"><ele>806</ele><time>2021-05-13T16:14:47Z</time></trkpt>
<trkpt lat="46.50216" lon="6.74936"><ele>805.8</ele><time>2021-05-13T16:14:51Z</time></trkpt>
<trkpt lat="46.50236" lon="6.74922"><ele>806.8</ele><time>2021-05-13T16:15:00Z</time></trkpt>
<trkpt lat="46.50237" lon="6.74922"><ele>806.6</ele><time>2021-05-13T16:15:01Z</time></trkpt>
<trkpt lat="46.50246" lon="6.74915"><ele>807.2</ele><time>2021-05-13T16:15:07Z</time></trkpt>
<trkpt lat="46.50262" lon="6.74903"><ele>808</ele><time>2021-05-13T16:15:17Z</time></trkpt>
<trkpt lat="46.50273" lon="6.74892"><ele>808.6</ele><time>2021-05-13T16:15:23Z</time></trkpt>
<trkpt lat="46.50288" lon="6.74876"><ele>809.4</ele><time>2021-05-13T16:15:31Z</time></trkpt>
<trkpt lat="46.50303" lon="6.74858"><ele>812</ele><time>2021-05-13T16:15:41Z</time></trkpt>
<trkpt lat="46.5032" lon="6.74842"><ele>812.8</ele><time>2021-05-13T16:15:52Z</time></trkpt>
<trkpt lat="46.50338" lon="6.74831"><ele>814.2</ele><time>2021-05-13T16:16:01Z</time></trkpt>
<trkpt lat="46.50353" lon="6.74826"><ele>815.4</ele><time>2021-05-13T16:16:06Z</time></trkpt>
<trkpt lat="46.50372" lon="6.74832"><ele>819.2</ele><time>2021-05-13T16:16:14Z</time></trkpt>
<trkpt lat="46.50384" lon="6.74838"><ele>820.6</ele><time>2021-05-13T16:16:19Z</time></trkpt>
<trkpt lat="46.50398" lon="6.74846"><ele>819</ele><time>2021-05-13T16:16:24Z</time></trkpt>
<trkpt lat="46.50415" lon="6.74859"><ele>817.4</ele><time>2021-05-13T16:16:29Z</time></trkpt>
<trkpt lat="46.50428" lon="6.74873"><ele>815.2</ele><time>2021-05-13T16:16:32Z</time></trkpt>
<trkpt lat="46.50437" lon="6.74885"><ele>813.2</ele><time>2021-05-13T16:16:34Z</time></trkpt>
<trkpt lat="46.50451" lon="6.74903"><ele>813.4</ele><time>2021-05-13T16:16:37Z</time></trkpt>
<trkpt lat="46.50467" lon="6.74926"><ele>813.2</ele><time>2021-05-13T16:16:41Z</time></trkpt>
<trkpt lat="46.50471" lon="6.74932"><ele>813.4</ele><time>2021-05-13T16:16:42Z</time></trkpt>
<trkpt lat="46.50485" lon="6.74951"><ele>813.2</ele><time>2021-05-13T16:16:46Z</time></trkpt>
<trkpt lat="46.50498" lon="6.74971"><ele>812.2</ele><time>2021-05-13T16:16:50Z</time></trkpt>
<trkpt lat="46.50514" lon="6.74992"><ele>812.4</ele><time>2021-05-13T16:16:55Z</time></trkpt>
<trkpt lat="46.50528" lon="6.75012"><ele>813</ele><time>2021-05-13T16:17:00Z</time></trkpt>
<trkpt lat="46.50543" lon="6.75032"><ele>814</ele><time>2021-05-13T16:17:06Z</time></trkpt>
<trkpt lat="46.50558" lon="6.75053"><ele>816</ele><time>2021-05-13T16:17:13Z</time></trkpt>
<trkpt lat="46.50563" lon="6.75056"><ele>816.2</ele><time>2021-05-13T16:17:15Z</time></trkpt>
<trkpt lat="46.50582" lon="6.75052"><ele>816.6</ele><time>2021-05-13T16:17:20Z</time></trkpt>
<trkpt lat="46.50602" lon="6.75039"><ele>816</ele><time>2021-05-13T16:17:25Z</time></trkpt>
<trkpt lat="46.50608" lon="6.75015"><ele>816.8</ele><time>2021-05-13T16:17:29Z</time></trkpt>
<trkpt lat="46.50608" lon="6.75"><ele>817</ele><time>2021-05-13T16:17:31Z</time></trkpt>
<trkpt lat="46.50611" lon="6.74959"><ele>819</ele><time>2021-05-13T16:17:38Z</time></trkpt>
<trkpt lat="46.50616" lon="6.74932"><ele>820.6</ele><time>2021-05-13T16:17:44Z</time></trkpt>
<trkpt lat="46.50622" lon="6.74916"><ele>822.6</ele><time>2021-05-13T16:17:48Z</time></trkpt>
<trkpt lat="46.50634" lon="6.74902"><ele>825</ele><time>2021-05-13T16:17:54Z</time></trkpt>
<trkpt lat="46.50637" lon="6.74902"><ele>825.2</ele><time>2021-05-13T16:17:55Z</time></trkpt>
<trkpt lat="46.50655" lon="6.74913"><ele>824</ele><time>2021-05-13T16:18:00Z</time></trkpt>
<trkpt lat="46.5066" lon="6.74918"><ele>823.4</ele><time>2021-05-13T16:18:01Z</time></trkpt>
<trkpt lat="46.50674" lon="6.74936"><ele>822</ele><time>2021-05-13T16:18:04Z</time></trkpt>
<trkpt lat="46.50688" lon="6.74959"><ele>821.2</ele><time>2021-05-13T16:18:07Z</time></trkpt>
<trkpt lat="46.50704" lon="6.74983"><ele>818.8</ele><time>2021-05-13T16:18:10Z</time></trkpt>
<trkpt lat="46.5071" lon="6.74991"><ele>817.2</ele><time>2021-05-13T16:18:11Z</time></trkpt>
<trkpt lat="46.50725" lon="6.75002"><ele>813.8</ele><time>2021-05-13T16:18:13Z</time></trkpt>
<trkpt lat="46.50733" lon="6.75006"><ele>812.4</ele><time>2021-05-13T16:18:14Z</time></trkpt>
<trkpt lat="46.50742" lon="6.7501"><ele>810.8</ele><time>2021-05-13T16:18:15Z</time></trkpt>
<trkpt lat="46.50758" lon="6.75019"><ele>808.4</ele><time>2021-05-13T16:18:17Z</time></trkpt>
<trkpt lat="46.50778" lon="6.75034"><ele>806</ele><time>2021-05-13T16:18:20Z</time></trkpt>
<trkpt lat="46.50788" lon="6.7504"><ele>804.6</ele><time>2021-05-13T16:18:22Z</time></trkpt>
<trkpt lat="46.50797" lon="6.75034"><ele>803.4</ele><time>2021-05-13T16:18:26Z</time></trkpt>
<trkpt lat="46.50798" lon="6.75029"><ele>802.4</ele><time>2021-05-13T16:18:27Z</time></trkpt>
<trkpt lat="46.50793" lon="6.75003"><ele>800.2</ele><time>2021-05-13T16:18:31Z</time></trkpt>
<trkpt lat="46.50791" lon="6.74996"><ele>799.6</ele><time>2021-05-13T16:18:32Z</time></trkpt>
<trkpt lat="46.50787" lon="6.74982"><ele>798.8</ele><time>2021-05-13T16:18:34Z</time></trkpt>
<trkpt lat="46.50781" lon="6.74957"><ele>797.2</ele><time>2021-05-13T16:18:37Z</time></trkpt>
<trkpt lat="46.50776" lon="6.74927"><ele>795.4</ele><time>2021-05-13T16:18:40Z</time></trkpt>
<trkpt lat="46.50773" lon="6.74916"><ele>795.2</ele><time>2021-05-13T16:18:41Z</time></trkpt>
<trkpt lat="46.50763" lon="6.74884"><ele>795</ele><time>2021-05-13T16:18:44Z</time></trkpt>
<trkpt lat="46.50759" lon="6.74874"><ele>794.6</ele><time>2021-05-13T16:18:45Z</time></trkpt>
<trkpt lat="46.50747" lon="6.74846"><ele>794.2</ele><time>2021-05-13T16:18:48Z</time></trkpt>
<trkpt lat="46.50735" lon="6.7482"><ele>793.6</ele><time>2021-05-13T16:18:51Z</time></trkpt>
<trkpt lat="46.50731" lon="6.74812"><ele>793.4</ele><time>2021-05-13T16:18:52Z</time></trkpt>
<trkpt lat="46.50714" lon="6.7479"><ele>793.4</ele><time>2021-05-13T16:18:56Z</time></trkpt>
<trkpt lat="46.507" lon="6.74772"><ele>794.2</ele><time>2021-05-13T16:19:00Z</time></trkpt>
<trkpt lat="46.50687" lon="6.7475"><ele>794</ele><time>2021-05-13T16:19:04Z</time></trkpt>
<trkpt lat="46.50674" lon="6.74725"><ele>792.4</ele><time>2021-05-13T16:19:08Z</time></trkpt>
<trkpt lat="46.50666" lon="6.74709"><ele>791.8</ele><time>2021-05-13T16:19:10Z</time></trkpt>
<trkpt lat="46.50655" lon="6.74685"><ele>790.8</ele><time>2021-05-13T16:19:13Z</time></trkpt>
<trkpt lat="46.50648" lon="6.74669"><ele>789</ele><time>2021-05-13T16:19:15Z</time></trkpt>
<trkpt lat="46.50662" lon="6.74645"><ele>787.2</ele><time>2021-05-13T16:19:19Z</time></trkpt>
<trkpt lat="46.50677" lon="6.74631"><ele>787.4</ele><time>2021-05-13T16:19:22Z</time></trkpt>
<trkpt lat="46.50696" lon="6.74615"><ele>787.2</ele><time>2021-05-13T16:19:26Z</time></trkpt>
<trkpt lat="46.50702" lon="6.74589"><ele>788.8</ele><time>2021-05-13T16:19:31Z</time></trkpt>
<trkpt lat="46.50703" lon="6.7456"><ele>791.6</ele><time>2021-05-13T16:19:39Z</time></trkpt>
<trkpt lat="46.50703" lon="6.74556"><ele>792</ele><time>2021-05-13T16:19:40Z</time></trkpt>
<trkpt lat="46.50706" lon="6.74536"><ele>791.4</ele><time>2021-05-13T16:19:44Z</time></trkpt>
<trkpt lat="46.50707" lon="6.74526"><ele>791.8</ele><time>2021-05-13T16:19:46Z</time></trkpt>
<trkpt lat="46.50708" lon="6.74508"><ele>791.8</ele><time>2021-05-13T16:19:49Z</time></trkpt>
<trkpt lat="46.50707" lon="6.74502"><ele>791.8</ele><time>2021-05-13T16:19:50Z</time></trkpt>
<trkpt lat="46.50703" lon="6.74486"><ele>792.6</ele><time>2021-05-13T16:19:53Z</time></trkpt>
<trkpt lat="46.50693" lon="6.74461"><ele>794.4</ele><time>2021-05-13T16:19:59Z</time></trkpt>
<trkpt lat="46.50683" lon="6.74436"><ele>795.2</ele><time>2021-05-13T16:20:04Z</time></trkpt>
<trkpt lat="46.50677" lon="6.74422"><ele>795.6</ele><time>2021-05-13T16:20:07Z</time></trkpt>
<trkpt lat="46.50676" lon="6.74417"><ele>795.6</ele><time>2021-05-13T16:20:08Z</time></trkpt>
<trkpt lat="46.50668" lon="6.74393"><ele>796.4</ele><time>2021-05-13T16:20:13Z</time></trkpt>
<trkpt lat="46.50664" lon="6.74385"><ele>796.8</ele><time>2021-05-13T16:20:15Z</time></trkpt>
<trkpt lat="46.5065" lon="6.74367"><ele>797.4</ele><time>2021-05-13T16:20:20Z</time></trkpt>
<trkpt lat="46.50631" lon="6.74352"><ele>797.4</ele><time>2021-05-13T16:20:25Z</time></trkpt>
<trkpt lat="46.50614" lon="6.74335"><ele>797.4</ele><time>2021-05-13T16:20:29Z</time></trkpt>
<trkpt lat="46.50599" lon="6.7432"><ele>797.8</ele><time>2021-05-13T16:20:33Z</time></trkpt>
<trkpt lat="46.50582" lon="6.74304"><ele>798</ele><time>2021-05-13T16:20:38Z</time></trkpt>
<trkpt lat="46.50565" lon="6.74287"><ele>798.6</ele><time>2021-05-13T16:20:43Z</time></trkpt>
<trkpt lat="46.50551" lon="6.74266"><ele>799.6</ele><time>2021-05-13T16:20:48Z</time></trkpt>
<trkpt lat="46.50547" lon="6.74254"><ele>800.4</ele><time>2021-05-13T16:20:51Z</time></trkpt>
<trkpt lat="46.50539" lon="6.74227"><ele>801.2</ele><time>2021-05-13T16:21:00Z</time></trkpt>
<trkpt lat="46.50534" lon="6.74205"><ele>802.6</ele><time>2021-05-13T16:21:08Z</time></trkpt>
<trkpt lat="46.50533" lon="6.74201"><ele>803.2</ele><time>2021-05-13T16:21:10Z</time></trkpt>
<trkpt lat="46.50531" lon="6.74196"><ele>803</ele><time>2021-05-13T16:21:12Z</time></trkpt>
<trkpt lat="46.5053" lon="6.74183"><ele>803.6</ele><time>2021-05-13T16:21:17Z</time></trkpt>
<trkpt lat="46.50529" lon="6.74178"><ele>804</ele><time>2021-05-13T16:21:19Z</time></trkpt>
<trkpt lat="46.50529" lon="6.74162"><ele>804.2</ele><time>2021-05-13T16:21:25Z</time></trkpt>
<trkpt lat="46.50529" lon="6.74156"><ele>804</ele><time>2021-05-13T16:21:27Z</time></trkpt>
<trkpt lat="46.50532" lon="6.74142"><ele>803.6</ele><time>2021-05-13T16:21:31Z</time></trkpt>
<trkpt lat="46.50534" lon="6.74135"><ele>804</ele><time>2021-05-13T16:21:33Z</time></trkpt>
<trkpt lat="46.5054" lon="6.74133"><ele>805</ele><time>2021-05-13T16:21:37Z</time></trkpt>
<trkpt lat="46.50543" lon="6.74134"><ele>805</ele><time>2021-05-13T16:21:39Z</time></trkpt>
<trkpt lat="46.50544" lon="6.74124"><ele>805.6</ele><time>2021-05-13T16:21:47Z</time></trkpt>
<trkpt lat="46.50544" lon="6.74124"><ele>805.6</ele><time>2021-05-13T16:22:04Z</time></trkpt>
<trkpt lat="46.50545" lon="6.74126"><ele>806.2</ele><time>2021-05-13T16:22:33Z</time></trkpt>
<trkpt lat="46.50528" lon="6.74135"><ele>804.6</ele><time>2021-05-13T16:22:42Z</time></trkpt>
<trkpt lat="46.50509" lon="6.7413"><ele>801</ele><time>2021-05-13T16:22:46Z</time></trkpt>
<trkpt lat="46.50487" lon="6.74124"><ele>797.4</ele><time>2021-05-13T16:22:50Z</time></trkpt>
<trkpt lat="46.50472" lon="6.74123"><ele>795.8</ele><time>2021-05-13T16:22:53Z</time></trkpt>
<trkpt lat="46.50463" lon="6.74121"><ele>795.4</ele><time>2021-05-13T16:22:55Z</time></trkpt>
<trkpt lat="46.50444" lon="6.74118"><ele>795</ele><time>2021-05-13T16:22:59Z</time></trkpt>
<trkpt lat="46.50426" lon="6.74112"><ele>795</ele><time>2021-05-13T16:23:03Z</time></trkpt>
<trkpt lat="46.50419" lon="6.74107"><ele>794.4</ele><time>2021-05-13T16:23:05Z</time></trkpt>
<trkpt lat="46.50416" lon="6.74103"><ele>793.2</ele><time>2021-05-13T16:23:06Z</time></trkpt>
<trkpt lat="46.50414" lon="6.74098"><ele>792.8</ele><time>2021-05-13T16:23:07Z</time></trkpt>
<trkpt lat="46.50413" lon="6.74092"><ele>792.4</ele><time>2021-05-13T16:23:08Z</time></trkpt>
<trkpt lat="46.50413" lon="6.74062"><ele>790.2</ele><time>2021-05-13T16:23:12Z</time></trkpt>
<trkpt lat="46.50415" lon="6.74044"><ele>788.8</ele><time>2021-05-13T16:23:14Z</time></trkpt>
<trkpt lat="46.50419" lon="6.74012"><ele>786.6</ele><time>2021-05-13T16:23:18Z</time></trkpt>
<trkpt lat="46.50432" lon="6.73991"><ele>783.4</ele><time>2021-05-13T16:23:22Z</time></trkpt>
<trkpt lat="46.5045" lon="6.73974"><ele>779.6</ele><time>2021-05-13T16:23:25Z</time></trkpt>
<trkpt lat="46.50472" lon="6.73952"><ele>775</ele><time>2021-05-13T16:23:28Z</time></trkpt>
<trkpt lat="46.50488" lon="6.73935"><ele>772</ele><time>2021-05-13T16:23:30Z</time></trkpt>
<trkpt lat="46.50504" lon="6.7392"><ele>768.2</ele><time>2021-05-13T16:23:32Z</time></trkpt>
<trkpt lat="46.50522" lon="6.73898"><ele>765.8</ele><time>2021-05-13T16:23:35Z</time></trkpt>
<trkpt lat="46.50537" lon="6.73872"><ele>762.2</ele><time>2021-05-13T16:23:39Z</time></trkpt>
<trkpt lat="46.5054" lon="6.73864"><ele>761.2</ele><time>2021-05-13T16:23:40Z</time></trkpt>
<trkpt lat="46.50552" lon="6.73836"><ele>757.4</ele><time>2021-05-13T16:23:43Z</time></trkpt>
<trkpt lat="46.50555" lon="6.73826"><ele>756.4</ele><time>2021-05-13T16:23:44Z</time></trkpt>
<trkpt lat="46.50562" lon="6.73794"><ele>753</ele><time>2021-05-13T16:23:47Z</time></trkpt>
<trkpt lat="46.50565" lon="6.73782"><ele>751.8</ele><time>2021-05-13T16:23:48Z</time></trkpt>
<trkpt lat="46.50563" lon="6.7375"><ele>748.6</ele><time>2021-05-13T16:23:51Z</time></trkpt>
<trkpt lat="46.50559" lon="6.73729"><ele>746.8</ele><time>2021-05-13T16:23:53Z</time></trkpt>
<trkpt lat="46.50557" lon="6.7372"><ele>746.2</ele><time>2021-05-13T16:23:54Z</time></trkpt>
<trkpt lat="46.50557" lon="6.73686"><ele>743.2</ele><time>2021-05-13T16:23:58Z</time></trkpt>
<trkpt lat="46.50555" lon="6.73654"><ele>741</ele><time>2021-05-13T16:24:02Z</time></trkpt>
<trkpt lat="46.50554" lon="6.73625"><ele>740.2</ele><time>2021-05-13T16:24:06Z</time></trkpt>
<trkpt lat="46.50553" lon="6.73613"><ele>740.2</ele><time>2021-05-13T16:24:08Z</time></trkpt>
<trkpt lat="46.50548" lon="6.73587"><ele>742</ele><time>2021-05-13T16:24:14Z</time></trkpt>
<trkpt lat="46.50547" lon="6.73572"><ele>743.6</ele><time>2021-05-13T16:24:17Z</time></trkpt>
<trkpt lat="46.50548" lon="6.73546"><ele>737.6</ele><time>2021-05-13T16:24:21Z</time></trkpt>
<trkpt lat="46.50556" lon="6.73512"><ele>735.2</ele><time>2021-05-13T16:24:24Z</time></trkpt>
<trkpt lat="46.5056" lon="6.735"><ele>734.4</ele><time>2021-05-13T16:24:25Z</time></trkpt>
<trkpt lat="46.50571" lon="6.73466"><ele>733.8</ele><time>2021-05-13T16:24:28Z</time></trkpt>
<trkpt lat="46.50581" lon="6.73438"><ele>731.2</ele><time>2021-05-13T16:24:31Z</time></trkpt>
<trkpt lat="46.50589" lon="6.7341"><ele>726.4</ele><time>2021-05-13T16:24:34Z</time></trkpt>
<trkpt lat="46.50591" lon="6.73399"><ele>724.4</ele><time>2021-05-13T16:24:35Z</time></trkpt>
<trkpt lat="46.50591" lon="6.7337"><ele>721.2</ele><time>2021-05-13T16:24:37Z</time></trkpt>
<trkpt lat="46.50592" lon="6.73339"><ele>720</ele><time>2021-05-13T16:24:39Z</time></trkpt>
<trkpt lat="46.50595" lon="6.73312"><ele>720</ele><time>2021-05-13T16:24:41Z</time></trkpt>
<trkpt lat="46.50603" lon="6.7328"><ele>720.4</ele><time>2021-05-13T16:24:44Z</time></trkpt>
<trkpt lat="46.50614" lon="6.73255"><ele>721</ele><time>2021-05-13T16:24:47Z</time></trkpt>
<trkpt lat="46.5062" lon="6.73241"><ele>721.4</ele><time>2021-05-13T16:24:49Z</time></trkpt>
<trkpt lat="46.5061" lon="6.73233"><ele>721.6</ele><time>2021-05-13T16:24:54Z</time></trkpt>
<trkpt lat="46.506" lon="6.73245"><ele>721</ele><time>2021-05-13T16:24:56Z</time></trkpt>
<trkpt lat="46.50582" lon="6.73267"><ele>717</ele><time>2021-05-13T16:24:59Z</time></trkpt>
<trkpt lat="46.50568" lon="6.73286"><ele>714.6</ele><time>2021-05-13T16:25:01Z</time></trkpt>
<trkpt lat="46.50555" lon="6.73309"><ele>712.6</ele><time>2021-05-13T16:25:03Z</time></trkpt>
<trkpt lat="46.50545" lon="6.73333"><ele>711.2</ele><time>2021-05-13T16:25:05Z</time></trkpt>
<trkpt lat="46.50527" lon="6.73345"><ele>710</ele><time>2021-05-13T16:25:09Z</time></trkpt>
<trkpt lat="46.5052" lon="6.73333"><ele>708.4</ele><time>2021-05-13T16:25:11Z</time></trkpt>
<trkpt lat="46.50506" lon="6.73309"><ele>705.8</ele><time>2021-05-13T16:25:14Z</time></trkpt>
<trkpt lat="46.50488" lon="6.73279"><ele>703.2</ele><time>2021-05-13T16:25:17Z</time></trkpt>
<trkpt lat="46.50476" lon="6.73257"><ele>702</ele><time>2021-05-13T16:25:19Z</time></trkpt>
<trkpt lat="46.50464" lon="6.73236"><ele>700.8</ele><time>2021-05-13T16:25:21Z</time></trkpt>
<trkpt lat="46.50448" lon="6.73207"><ele>698.6</ele><time>2021-05-13T16:25:24Z</time></trkpt>
<trkpt lat="46.50436" lon="6.73186"><ele>696.6</ele><time>2021-05-13T16:25:26Z</time></trkpt>
<trkpt lat="46.50423" lon="6.73164"><ele>695</ele><time>2021-05-13T16:25:28Z</time></trkpt>
<trkpt lat="46.5041" lon="6.73142"><ele>694.4</ele><time>2021-05-13T16:25:30Z</time></trkpt>
<trkpt lat="46.50397" lon="6.7312"><ele>694.4</ele><time>2021-05-13T16:25:32Z</time></trkpt>
<trkpt lat="46.50385" lon="6.731"><ele>694.4</ele><time>2021-05-13T16:25:34Z</time></trkpt>
<trkpt lat="46.50369" lon="6.73073"><ele>694.2</ele><time>2021-05-13T16:25:37Z</time></trkpt>
<trkpt lat="46.50354" lon="6.73047"><ele>694</ele><time>2021-05-13T16:25:40Z</time></trkpt>
<trkpt lat="46.5034" lon="6.73023"><ele>694.2</ele><time>2021-05-13T16:25:43Z</time></trkpt>
<trkpt lat="46.50328" lon="6.73001"><ele>695.6</ele><time>2021-05-13T16:25:46Z</time></trkpt>
<trkpt lat="46.50318" lon="6.7298"><ele>698.4</ele><time>2021-05-13T16:25:51Z</time></trkpt>
<trkpt lat="46.50317" lon="6.72974"><ele>699</ele><time>2021-05-13T16:25:53Z</time></trkpt>
<trkpt lat="46.50314" lon="6.7296"><ele>700.4</ele><time>2021-05-13T16:25:57Z</time></trkpt>
<trkpt lat="46.50313" lon="6.7295"><ele>701</ele><time>2021-05-13T16:26:00Z</time></trkpt>
<trkpt lat="46.50303" lon="6.72937"><ele>702.2</ele><time>2021-05-13T16:26:05Z</time></trkpt>
<trkpt lat="46.50286" lon="6.72921"><ele>702.2</ele><time>2021-05-13T16:26:10Z</time></trkpt>
<trkpt lat="46.50268" lon="6.72901"><ele>701.6</ele><time>2021-05-13T16:26:15Z</time></trkpt>
<trkpt lat="46.50253" lon="6.7288"><ele>700.4</ele><time>2021-05-13T16:26:19Z</time></trkpt>
<trkpt lat="46.50238" lon="6.72861"><ele>699.6</ele><time>2021-05-13T16:26:22Z</time></trkpt>
<trkpt lat="46.5022" lon="6.72842"><ele>697.6</ele><time>2021-05-13T16:26:25Z</time></trkpt>
<trkpt lat="46.50202" lon="6.72826"><ele>695.8</ele><time>2021-05-13T16:26:28Z</time></trkpt>
<trkpt lat="46.50182" lon="6.72813"><ele>695</ele><time>2021-05-13T16:26:31Z</time></trkpt>
<trkpt lat="46.5017" lon="6.72806"><ele>694.2</ele><time>2021-05-13T16:26:33Z</time></trkpt>
<trkpt lat="46.50158" lon="6.72798"><ele>693.2</ele><time>2021-05-13T16:26:35Z</time></trkpt>
<trkpt lat="46.50141" lon="6.72778"><ele>692</ele><time>2021-05-13T16:26:39Z</time></trkpt>
<trkpt lat="46.50137" lon="6.72771"><ele>691.2</ele><time>2021-05-13T16:26:40Z</time></trkpt>
<trkpt lat="46.50129" lon="6.72745"><ele>687.6</ele><time>2021-05-13T16:26:43Z</time></trkpt>
<trkpt lat="46.50123" lon="6.7271"><ele>684.2</ele><time>2021-05-13T16:26:46Z</time></trkpt>
<trkpt lat="46.5012" lon="6.72684"><ele>682</ele><time>2021-05-13T16:26:48Z</time></trkpt>
<trkpt lat="46.50113" lon="6.72648"><ele>678.6</ele><time>2021-05-13T16:26:51Z</time></trkpt>
<trkpt lat="46.50108" lon="6.72626"><ele>675.8</ele><time>2021-05-13T16:26:53Z</time></trkpt>
<trkpt lat="46.50105" lon="6.72616"><ele>675</ele><time>2021-05-13T16:26:54Z</time></trkpt>
<trkpt lat="46.50103" lon="6.72605"><ele>674.6</ele><time>2021-05-13T16:26:55Z</time></trkpt>
<trkpt lat="46.501" lon="6.72595"><ele>673.8</ele><time>2021-05-13T16:26:56Z</time></trkpt>
<trkpt lat="46.50088" lon="6.72568"><ele>671.2</ele><time>2021-05-13T16:27:00Z</time></trkpt>
<trkpt lat="46.50078" lon="6.7255"><ele>670.6</ele><time>2021-05-13T16:27:05Z</time></trkpt>
<trkpt lat="46.5007" lon="6.72533"><ele>672</ele><time>2021-05-13T16:27:09Z</time></trkpt>
<trkpt lat="46.50057" lon="6.72507"><ele>673.4</ele><time>2021-05-13T16:27:14Z</time></trkpt>
<trkpt lat="46.50055" lon="6.72502"><ele>673.4</ele><time>2021-05-13T16:27:15Z</time></trkpt>
<trkpt lat="46.50045" lon="6.72481"><ele>672.8</ele><time>2021-05-13T16:27:19Z</time></trkpt>
<trkpt lat="46.50036" lon="6.72459"><ele>672.4</ele><time>2021-05-13T16:27:27Z</time></trkpt>
<trkpt lat="46.5003" lon="6.72437"><ele>671.8</ele><time>2021-05-13T16:27:31Z</time></trkpt>
<trkpt lat="46.50028" lon="6.72429"><ele>671.6</ele><time>2021-05-13T16:27:32Z</time></trkpt>
<trkpt lat="46.50026" lon="6.72422"><ele>671.2</ele><time>2021-05-13T16:27:33Z</time></trkpt>
<trkpt lat="46.50024" lon="6.72415"><ele>670.8</ele><time>2021-05-13T16:27:34Z</time></trkpt>
<trkpt lat="46.50015" lon="6.72385"><ele>668.4</ele><time>2021-05-13T16:27:38Z</time></trkpt>
<trkpt lat="46.50012" lon="6.72377"><ele>667.6</ele><time>2021-05-13T16:27:39Z</time></trkpt>
<trkpt lat="46.50003" lon="6.72349"><ele>664.8</ele><time>2021-05-13T16:27:42Z</time></trkpt>
<trkpt lat="46.49995" lon="6.72323"><ele>662</ele><time>2021-05-13T16:27:45Z</time></trkpt>
<trkpt lat="46.49985" lon="6.72296"><ele>657.6</ele><time>2021-05-13T16:27:49Z</time></trkpt>
<trkpt lat="46.49982" lon="6.72266"><ele>654.6</ele><time>2021-05-13T16:27:52Z</time></trkpt>
<trkpt lat="46.49984" lon="6.72246"><ele>652.8</ele><time>2021-05-13T16:27:54Z</time></trkpt>
<trkpt lat="46.49986" lon="6.72218"><ele>650.6</ele><time>2021-05-13T16:27:57Z</time></trkpt>
<trkpt lat="46.4999" lon="6.72183"><ele>648.2</ele><time>2021-05-13T16:28:00Z</time></trkpt>
<trkpt lat="46.49993" lon="6.72147"><ele>645</ele><time>2021-05-13T16:28:03Z</time></trkpt>
<trkpt lat="46.49988" lon="6.72113"><ele>641.8</ele><time>2021-05-13T16:28:06Z</time></trkpt>
<trkpt lat="46.49976" lon="6.72084"><ele>638.2</ele><time>2021-05-13T16:28:09Z</time></trkpt>
<trkpt lat="46.49965" lon="6.72063"><ele>635.6</ele><time>2021-05-13T16:28:12Z</time></trkpt>
<trkpt lat="46.49962" lon="6.72055"><ele>634.2</ele><time>2021-05-13T16:28:14Z</time></trkpt>
<trkpt lat="46.49959" lon="6.72047"><ele>634.6</ele><time>2021-05-13T16:28:17Z</time></trkpt>
<trkpt lat="46.49952" lon="6.72041"><ele>633.8</ele><time>2021-05-13T16:28:20Z</time></trkpt>
<trkpt lat="46.49929" lon="6.72003"><ele>632</ele><time>2021-05-13T16:28:30Z</time></trkpt>
<trkpt lat="46.49918" lon="6.71982"><ele>630.4</ele><time>2021-05-13T16:28:34Z</time></trkpt>
<trkpt lat="46.49903" lon="6.71955"><ele>628</ele><time>2021-05-13T16:28:38Z</time></trkpt>
<trkpt lat="46.49886" lon="6.71931"><ele>624.4</ele><time>2021-05-13T16:28:41Z</time></trkpt>
<trkpt lat="46.49867" lon="6.71911"><ele>619.8</ele><time>2021-05-13T16:28:44Z</time></trkpt>
<trkpt lat="46.49847" lon="6.7189"><ele>615.4</ele><time>2021-05-13T16:28:47Z</time></trkpt>
<trkpt lat="46.49841" lon="6.71883"><ele>613.8</ele><time>2021-05-13T16:28:48Z</time></trkpt>
<trkpt lat="46.49825" lon="6.71854"><ele>609</ele><time>2021-05-13T16:28:51Z</time></trkpt>
<trkpt lat="46.49822" lon="6.71843"><ele>607.6</ele><time>2021-05-13T16:28:52Z</time></trkpt>
<trkpt lat="46.49814" lon="6.71823"><ele>604.8</ele><time>2021-05-13T16:28:54Z</time></trkpt>
<trkpt lat="46.49802" lon="6.718"><ele>601.6</ele><time>2021-05-13T16:28:57Z</time></trkpt>
<trkpt lat="46.49796" lon="6.7177"><ele>601.2</ele><time>2021-05-13T16:29:00Z</time></trkpt>
<trkpt lat="46.49801" lon="6.71741"><ele>600.4</ele><time>2021-05-13T16:29:03Z</time></trkpt>
<trkpt lat="46.49812" lon="6.71714"><ele>599.2</ele><time>2021-05-13T16:29:06Z</time></trkpt>
<trkpt lat="46.49826" lon="6.71687"><ele>597.8</ele><time>2021-05-13T16:29:09Z</time></trkpt>
<trkpt lat="46.49843" lon="6.71664"><ele>596.6</ele><time>2021-05-13T16:29:12Z</time></trkpt>
<trkpt lat="46.49862" lon="6.71644"><ele>595.2</ele><time>2021-05-13T16:29:15Z</time></trkpt>
<trkpt lat="46.4988" lon="6.71628"><ele>593.4</ele><time>2021-05-13T16:29:18Z</time></trkpt>
<trkpt lat="46.49897" lon="6.7161"><ele>593.6</ele><time>2021-05-13T16:29:22Z</time></trkpt>
<trkpt lat="46.49899" lon="6.71607"><ele>593.8</ele><time>2021-05-13T16:29:23Z</time></trkpt>
<trkpt lat="46.49901" lon="6.71605"><ele>594</ele><time>2021-05-13T16:29:24Z</time></trkpt>
<trkpt lat="46.49906" lon="6.716"><ele>595</ele><time>2021-05-13T16:29:27Z</time></trkpt>
<trkpt lat="46.49909" lon="6.71597"><ele>595.6</ele><time>2021-05-13T16:29:29Z</time></trkpt>
<trkpt lat="46.49912" lon="6.71593"><ele>596</ele><time>2021-05-13T16:29:31Z</time></trkpt>
<trkpt lat="46.49917" lon="6.71584"><ele>596.8</ele><time>2021-05-13T16:29:36Z</time></trkpt>
<trkpt lat="46.49919" lon="6.7158"><ele>597.2</ele><time>2021-05-13T16:29:38Z</time></trkpt>
<trkpt lat="46.49926" lon="6.71567"><ele>598</ele><time>2021-05-13T16:29:44Z</time></trkpt>
<trkpt lat="46.49927" lon="6.71561"><ele>598.8</ele><time>2021-05-13T16:29:47Z</time></trkpt>
<trkpt lat="46.49927" lon="6.71555"><ele>599.2</ele><time>2021-05-13T16:29:49Z</time></trkpt>
<trkpt lat="46.49927" lon="6.71547"><ele>599.6</ele><time>2021-05-13T16:29:51Z</time></trkpt>
<trkpt lat="46.49928" lon="6.71533"><ele>599.6</ele><time>2021-05-13T16:29:54Z</time></trkpt>
<trkpt lat="46.49928" lon="6.71528"><ele>599.6</ele><time>2021-05-13T16:29:55Z</time></trkpt>
<trkpt lat="46.49932" lon="6.71518"><ele>599.4</ele><time>2021-05-13T16:29:57Z</time></trkpt>
<trkpt lat="46.49942" lon="6.71504"><ele>599</ele><time>2021-05-13T16:30:00Z</time></trkpt>
<trkpt lat="46.49957" lon="6.71486"><ele>598.6</ele><time>2021-05-13T16:30:04Z</time></trkpt>
<trkpt lat="46.49961" lon="6.71481"><ele>598.2</ele><time>2021-05-13T16:30:05Z</time></trkpt>
<trkpt lat="46.49983" lon="6.71465"><ele>596</ele><time>2021-05-13T16:30:09Z</time></trkpt>
<trkpt lat="46.50001" lon="6.71457"><ele>594.4</ele><time>2021-05-13T16:30:12Z</time></trkpt>
<trkpt lat="46.50023" lon="6.71445"><ele>594.8</ele><time>2021-05-13T16:30:16Z</time></trkpt>
<trkpt lat="46.5004" lon="6.71434"><ele>594.2</ele><time>2021-05-13T16:30:20Z</time></trkpt>
<trkpt lat="46.50053" lon="6.71425"><ele>593.6</ele><time>2021-05-13T16:30:23Z</time></trkpt>
<trkpt lat="46.50062" lon="6.71421"><ele>593.2</ele><time>2021-05-13T16:30:25Z</time></trkpt>
<trkpt lat="46.50082" lon="6.71411"><ele>593.8</ele><time>2021-05-13T16:30:30Z</time></trkpt>
<trkpt lat="46.50092" lon="6.71407"><ele>594.8</ele><time>2021-05-13T16:30:33Z</time></trkpt>
<trkpt lat="46.50108" lon="6.71397"><ele>596.8</ele><time>2021-05-13T16:30:39Z</time></trkpt>
<trkpt lat="46.50114" lon="6.71393"><ele>597.4</ele><time>2021-05-13T16:30:41Z</time></trkpt>
<trkpt lat="46.50123" lon="6.71382"><ele>595.8</ele><time>2021-05-13T16:30:46Z</time></trkpt>
<trkpt lat="46.50111" lon="6.71379"><ele>594.2</ele><time>2021-05-13T16:30:51Z</time></trkpt>
<trkpt lat="46.50093" lon="6.71382"><ele>593</ele><time>2021-05-13T16:30:55Z</time></trkpt>
<trkpt lat="46.50071" lon="6.71383"><ele>588.2</ele><time>2021-05-13T16:30:59Z</time></trkpt>
<trkpt lat="46.50052" lon="6.71382"><ele>584.2</ele><time>2021-05-13T16:31:02Z</time></trkpt>
<trkpt lat="46.50033" lon="6.71379"><ele>580</ele><time>2021-05-13T16:31:05Z</time></trkpt>
<trkpt lat="46.50013" lon="6.71378"><ele>575.2</ele><time>2021-05-13T16:31:09Z</time></trkpt>
<trkpt lat="46.50009" lon="6.71377"><ele>574.4</ele><time>2021-05-13T16:31:10Z</time></trkpt>
<trkpt lat="46.50005" lon="6.71355"><ele>570.8</ele><time>2021-05-13T16:31:15Z</time></trkpt>
<trkpt lat="46.50022" lon="6.71341"><ele>568.4</ele><time>2021-05-13T16:31:19Z</time></trkpt>
<trkpt lat="46.50033" lon="6.71331"><ele>567.6</ele><time>2021-05-13T16:31:22Z</time></trkpt>
<trkpt lat="46.50041" lon="6.71324"><ele>567.2</ele><time>2021-05-13T16:31:24Z</time></trkpt>
<trkpt lat="46.50056" lon="6.7131"><ele>566.4</ele><time>2021-05-13T16:31:28Z</time></trkpt>
<trkpt lat="46.5007" lon="6.71296"><ele>566.2</ele><time>2021-05-13T16:31:32Z</time></trkpt>
<trkpt lat="46.50089" lon="6.71286"><ele>564.2</ele><time>2021-05-13T16:31:36Z</time></trkpt>
<trkpt lat="46.50104" lon="6.71273"><ele>562.8</ele><time>2021-05-13T16:31:39Z</time></trkpt>
<trkpt lat="46.50123" lon="6.71253"><ele>561.4</ele><time>2021-05-13T16:31:43Z</time></trkpt>
<trkpt lat="46.50137" lon="6.71232"><ele>560.2</ele><time>2021-05-13T16:31:47Z</time></trkpt>
<trkpt lat="46.50141" lon="6.71226"><ele>560</ele><time>2021-05-13T16:31:48Z</time></trkpt>
<trkpt lat="46.50149" lon="6.71209"><ele>559.8</ele><time>2021-05-13T16:31:51Z</time></trkpt>
<trkpt lat="46.5016" lon="6.71188"><ele>559.6</ele><time>2021-05-13T16:31:55Z</time></trkpt>
<trkpt lat="46.50172" lon="6.71166"><ele>560</ele><time>2021-05-13T16:32:00Z</time></trkpt>
<trkpt lat="46.50175" lon="6.71157"><ele>559.8</ele><time>2021-05-13T16:32:02Z</time></trkpt>
<trkpt lat="46.50182" lon="6.71129"><ele>558.8</ele><time>2021-05-13T16:32:06Z</time></trkpt>
<trkpt lat="46.50184" lon="6.71102"><ele>559</ele><time>2021-05-13T16:32:09Z</time></trkpt>
<trkpt lat="46.50179" lon="6.71074"><ele>560</ele><time>2021-05-13T16:32:13Z</time></trkpt>
<trkpt lat="46.50178" lon="6.71068"><ele>560.2</ele><time>2021-05-13T16:32:14Z</time></trkpt>
<trkpt lat="46.50183" lon="6.71044"><ele>561.8</ele><time>2021-05-13T16:32:19Z</time></trkpt>
<trkpt lat="46.50187" lon="6.71038"><ele>562.4</ele><time>2021-05-13T16:32:21Z</time></trkpt>
<trkpt lat="46.50198" lon="6.71029"><ele>563.2</ele><time>2021-05-13T16:32:26Z</time></trkpt>
<trkpt lat="46.50203" lon="6.71023"><ele>563.4</ele><time>2021-05-13T16:32:29Z</time></trkpt>
<trkpt lat="46.50213" lon="6.71012"><ele>562.2</ele><time>2021-05-13T16:32:33Z</time></trkpt>
<trkpt lat="46.50231" lon="6.70988"><ele>559.4</ele><time>2021-05-13T16:32:37Z</time></trkpt>
<trkpt lat="46.50235" lon="6.7098"><ele>559.2</ele><time>2021-05-13T16:32:38Z</time></trkpt>
<trkpt lat="46.50239" lon="6.7097"><ele>559</ele><time>2021-05-13T16:32:39Z</time></trkpt>
<trkpt lat="46.50241" lon="6.70961"><ele>559.2</ele><time>2021-05-13T16:32:40Z</time></trkpt>
<trkpt lat="46.50243" lon="6.70951"><ele>559.2</ele><time>2021-05-13T16:32:41Z</time></trkpt>
<trkpt lat="46.50243" lon="6.70942"><ele>559.4</ele><time>2021-05-13T16:32:42Z</time></trkpt>
<trkpt lat="46.5024" lon="6.70909"><ele>560</ele><time>2021-05-13T16:32:46Z</time></trkpt>
<trkpt lat="46.50238" lon="6.70902"><ele>560.2</ele><time>2021-05-13T16:32:47Z</time></trkpt>
<trkpt lat="46.50227" lon="6.70876"><ele>561</ele><time>2021-05-13T16:32:52Z</time></trkpt>
<trkpt lat="46.50216" lon="6.70857"><ele>562.6</ele><time>2021-05-13T16:32:58Z</time></trkpt>
<trkpt lat="46.50215" lon="6.70842"><ele>563.6</ele><time>2021-05-13T16:33:02Z</time></trkpt>
<trkpt lat="46.50216" lon="6.70831"><ele>563.4</ele><time>2021-05-13T16:33:06Z</time></trkpt>
<trkpt lat="46.50216" lon="6.70818"><ele>562.8</ele><time>2021-05-13T16:33:09Z</time></trkpt>
<trkpt lat="46.50216" lon="6.70809"><ele>562.4</ele><time>2021-05-13T16:33:11Z</time></trkpt>
<trkpt lat="46.50217" lon="6.70803"><ele>561.6</ele><time>2021-05-13T16:33:14Z</time></trkpt>
<trkpt lat="46.50218" lon="6.708"><ele>561.2</ele><time>2021-05-13T16:33:16Z</time></trkpt>
<trkpt lat="46.50215" lon="6.70775"><ele>558.2</ele><time>2021-05-13T16:33:24Z</time></trkpt>
<trkpt lat="46.50213" lon="6.70769"><ele>556.4</ele><time>2021-05-13T16:33:28Z</time></trkpt>
<trkpt lat="46.50213" lon="6.70769"><ele>556.2</ele><time>2021-05-13T16:33:37Z</time></trkpt>
<trkpt lat="46.50213" lon="6.70768"><ele>555.6</ele><time>2021-05-13T16:33:51Z</time></trkpt>
<trkpt lat="46.50213" lon="6.70768"><ele>556</ele><time>2021-05-13T16:33:59Z</time></trkpt>
<trkpt lat="46.50213" lon="6.70769"><ele>555.6</ele><time>2021-05-13T16:34:17Z</time></trkpt>
<trkpt lat="46.50217" lon="6.70738"><ele>553.4</ele><time>2021-05-13T16:34:24Z</time></trkpt>
<trkpt lat="46.50217" lon="6.70728"><ele>551</ele><time>2021-05-13T16:34:26Z</time></trkpt>
<trkpt lat="46.50201" lon="6.70713"><ele>545.6</ele><time>2021-05-13T16:34:31Z</time></trkpt>
<trkpt lat="46.50183" lon="6.70697"><ele>540.2</ele><time>2021-05-13T16:34:35Z</time></trkpt>
<trkpt lat="46.50172" lon="6.70688"><ele>537.6</ele><time>2021-05-13T16:34:38Z</time></trkpt>
<trkpt lat="46.50167" lon="6.70666"><ele>534.6</ele><time>2021-05-13T16:34:43Z</time></trkpt>
<trkpt lat="46.50169" lon="6.70655"><ele>533.2</ele><time>2021-05-13T16:34:45Z</time></trkpt>
<trkpt lat="46.50171" lon="6.70649"><ele>532.6</ele><time>2021-05-13T16:34:46Z</time></trkpt>
<trkpt lat="46.50178" lon="6.70638"><ele>531.4</ele><time>2021-05-13T16:34:48Z</time></trkpt>
<trkpt lat="46.50193" lon="6.70615"><ele>528</ele><time>2021-05-13T16:34:52Z</time></trkpt>
<trkpt lat="46.50201" lon="6.70595"><ele>524.6</ele><time>2021-05-13T16:34:55Z</time></trkpt>
<trkpt lat="46.50206" lon="6.7058"><ele>521.6</ele><time>2021-05-13T16:34:57Z</time></trkpt>
<trkpt lat="46.50211" lon="6.70547"><ele>514.8</ele><time>2021-05-13T16:35:01Z</time></trkpt>
<trkpt lat="46.5021" lon="6.70528"><ele>512</ele><time>2021-05-13T16:35:03Z</time></trkpt>
<trkpt lat="46.50203" lon="6.70503"><ele>508.8</ele><time>2021-05-13T16:35:06Z</time></trkpt>
<trkpt lat="46.502" lon="6.70494"><ele>507.8</ele><time>2021-05-13T16:35:07Z</time></trkpt>
<trkpt lat="46.50191" lon="6.70469"><ele>505.2</ele><time>2021-05-13T16:35:10Z</time></trkpt>
<trkpt lat="46.50181" lon="6.70444"><ele>502.4</ele><time>2021-05-13T16:35:13Z</time></trkpt>
<trkpt lat="46.50174" lon="6.70428"><ele>500.6</ele><time>2021-05-13T16:35:15Z</time></trkpt>
<trkpt lat="46.5016" lon="6.70407"><ele>497.6</ele><time>2021-05-13T16:35:18Z</time></trkpt>
<trkpt lat="46.50152" lon="6.70394"><ele>495.6</ele><time>2021-05-13T16:35:20Z</time></trkpt>
<trkpt lat="46.50144" lon="6.70377"><ele>493.2</ele><time>2021-05-13T16:35:23Z</time></trkpt>
<trkpt lat="46.50141" lon="6.70356"><ele>490.6</ele><time>2021-05-13T16:35:29Z</time></trkpt>
<trkpt lat="46.50123" lon="6.70348"><ele>486.8</ele><time>2021-05-13T16:35:34Z</time></trkpt>
<trkpt lat="46.50109" lon="6.70351"><ele>484.2</ele><time>2021-05-13T16:35:37Z</time></trkpt>
<trkpt lat="46.501" lon="6.70357"><ele>482.4</ele><time>2021-05-13T16:35:39Z</time></trkpt>
<trkpt lat="46.50085" lon="6.70372"><ele>478.2</ele><time>2021-05-13T16:35:43Z</time></trkpt>
<trkpt lat="46.50067" lon="6.70388"><ele>473.4</ele><time>2021-05-13T16:35:47Z</time></trkpt>
<trkpt lat="46.50045" lon="6.704"><ele>469.4</ele><time>2021-05-13T16:35:51Z</time></trkpt>
<trkpt lat="46.50028" lon="6.70407"><ele>466.4</ele><time>2021-05-13T16:35:54Z</time></trkpt>
<trkpt lat="46.5001" lon="6.70412"><ele>463.2</ele><time>2021-05-13T16:35:58Z</time></trkpt>
<trkpt lat="46.50006" lon="6.70414"><ele>462.8</ele><time>2021-05-13T16:35:59Z</time></trkpt>
<trkpt lat="46.49989" lon="6.70429"><ele>460.2</ele><time>2021-05-13T16:36:03Z</time></trkpt>
<trkpt lat="46.49984" lon="6.70435"><ele>459.8</ele><time>2021-05-13T16:36:04Z</time></trkpt>
<trkpt lat="46.49969" lon="6.70454"><ele>459.6</ele><time>2021-05-13T16:36:08Z</time></trkpt>
<trkpt lat="46.49959" lon="6.70468"><ele>460</ele><time>2021-05-13T16:36:11Z</time></trkpt>
<trkpt lat="46.49947" lon="6.70487"><ele>460.2</ele><time>2021-05-13T16:36:15Z</time></trkpt>
<trkpt lat="46.49945" lon="6.70492"><ele>460</ele><time>2021-05-13T16:36:16Z</time></trkpt>
<trkpt lat="46.4994" lon="6.70508"><ele>460.2</ele><time>2021-05-13T16:36:19Z</time></trkpt>
<trkpt lat="46.49939" lon="6.70513"><ele>460.4</ele><time>2021-05-13T16:36:20Z</time></trkpt>
<trkpt lat="46.49929" lon="6.70535"><ele>461.2</ele><time>2021-05-13T16:36:25Z</time></trkpt>
<trkpt lat="46.49918" lon="6.70555"><ele>462.4</ele><time>2021-05-13T16:36:30Z</time></trkpt>
<trkpt lat="46.49912" lon="6.70564"><ele>463.2</ele><time>2021-05-13T16:36:33Z</time></trkpt>
<trkpt lat="46.49904" lon="6.70576"><ele>464.6</ele><time>2021-05-13T16:36:38Z</time></trkpt>
<trkpt lat="46.49893" lon="6.70598"><ele>465</ele><time>2021-05-13T16:36:45Z</time></trkpt>
<trkpt lat="46.49887" lon="6.70612"><ele>465.4</ele><time>2021-05-13T16:36:49Z</time></trkpt>
<trkpt lat="46.49877" lon="6.70631"><ele>464</ele><time>2021-05-13T16:36:53Z</time></trkpt>
<trkpt lat="46.49866" lon="6.70658"><ele>460.4</ele><time>2021-05-13T16:36:58Z</time></trkpt>
<trkpt lat="46.49863" lon="6.70664"><ele>460</ele><time>2021-05-13T16:36:59Z</time></trkpt>
<trkpt lat="46.49858" lon="6.70675"><ele>459</ele><time>2021-05-13T16:37:01Z</time></trkpt>
<trkpt lat="46.49858" lon="6.70702"><ele>456.4</ele><time>2021-05-13T16:37:05Z</time></trkpt>
<trkpt lat="46.49862" lon="6.70714"><ele>454.8</ele><time>2021-05-13T16:37:07Z</time></trkpt>
<trkpt lat="46.49865" lon="6.7074"><ele>454.4</ele><time>2021-05-13T16:37:14Z</time></trkpt>
<trkpt lat="46.49867" lon="6.7075"><ele>454.2</ele><time>2021-05-13T16:37:16Z</time></trkpt>
<trkpt lat="46.4987" lon="6.70759"><ele>454.4</ele><time>2021-05-13T16:37:18Z</time></trkpt>
<trkpt lat="46.49869" lon="6.70786"><ele>453.4</ele><time>2021-05-13T16:37:24Z</time></trkpt>
<trkpt lat="46.49853" lon="6.70796"><ele>448.8</ele><time>2021-05-13T16:37:29Z</time></trkpt>
<trkpt lat="46.49848" lon="6.70793"><ele>447.4</ele><time>2021-05-13T16:37:31Z</time></trkpt>
<trkpt lat="46.49845" lon="6.70792"><ele>446.6</ele><time>2021-05-13T16:37:33Z</time></trkpt>
<trkpt lat="46.49834" lon="6.7079"><ele>444</ele><time>2021-05-13T16:37:38Z</time></trkpt>
<trkpt lat="46.49813" lon="6.70787"><ele>438.6</ele><time>2021-05-13T16:37:42Z</time></trkpt>
<trkpt lat="46.49795" lon="6.70784"><ele>434.2</ele><time>2021-05-13T16:37:45Z</time></trkpt>
<trkpt lat="46.49777" lon="6.70778"><ele>429.2</ele><time>2021-05-13T16:37:48Z</time></trkpt>
<trkpt lat="46.4976" lon="6.7077"><ele>424.6</ele><time>2021-05-13T16:37:51Z</time></trkpt>
<trkpt lat="46.49742" lon="6.70759"><ele>419.4</ele><time>2021-05-13T16:37:54Z</time></trkpt>
<trkpt lat="46.49725" lon="6.70751"><ele>415.8</ele><time>2021-05-13T16:37:57Z</time></trkpt>
<trkpt lat="46.49707" lon="6.70757"><ele>414.4</ele><time>2021-05-13T16:38:01Z</time></trkpt>
<trkpt lat="46.49703" lon="6.70762"><ele>414</ele><time>2021-05-13T16:38:02Z</time></trkpt>
<trkpt lat="46.49692" lon="6.70773"><ele>413</ele><time>2021-05-13T16:38:05Z</time></trkpt>
<trkpt lat="46.49672" lon="6.70783"><ele>409.2</ele><time>2021-05-13T16:38:09Z</time></trkpt>
<trkpt lat="46.49667" lon="6.70783"><ele>408.2</ele><time>2021-05-13T16:38:10Z</time></trkpt>
<trkpt lat="46.49661" lon="6.70784"><ele>407.4</ele><time>2021-05-13T16:38:11Z</time></trkpt>
<trkpt lat="46.49642" lon="6.70796"><ele>404</ele><time>2021-05-13T16:38:15Z</time></trkpt>
<trkpt lat="46.49637" lon="6.708"><ele>403.2</ele><time>2021-05-13T16:38:16Z</time></trkpt>
<trkpt lat="46.49622" lon="6.70816"><ele>400.8</ele><time>2021-05-13T16:38:20Z</time></trkpt>
<trkpt lat="46.49604" lon="6.70834"><ele>398</ele><time>2021-05-13T16:38:24Z</time></trkpt>
<trkpt lat="46.49594" lon="6.70842"><ele>396.6</ele><time>2021-05-13T16:38:26Z</time></trkpt>
<trkpt lat="46.49572" lon="6.70847"><ele>392.6</ele><time>2021-05-13T16:38:30Z</time></trkpt>
<trkpt lat="46.49562" lon="6.70846"><ele>390.8</ele><time>2021-05-13T16:38:32Z</time></trkpt>
<trkpt lat="46.49548" lon="6.70846"><ele>388.4</ele><time>2021-05-13T16:38:36Z</time></trkpt>
<trkpt lat="46.49531" lon="6.70875"><ele>387.8</ele><time>2021-05-13T16:38:43Z</time></trkpt>
<trkpt lat="46.4952" lon="6.70898"><ele>388</ele><time>2021-05-13T16:38:48Z</time></trkpt>
<trkpt lat="46.49517" lon="6.70902"><ele>388</ele><time>2021-05-13T16:38:49Z</time></trkpt>
<trkpt lat="46.49507" lon="6.70912"><ele>388.6</ele><time>2021-05-13T16:38:53Z</time></trkpt>
<trkpt lat="46.49491" lon="6.70912"><ele>387.8</ele><time>2021-05-13T16:38:59Z</time></trkpt>
<trkpt lat="46.49488" lon="6.70905"><ele>387.6</ele><time>2021-05-13T16:39:00Z</time></trkpt>
<trkpt lat="46.49481" lon="6.70893"><ele>386</ele><time>2021-05-13T16:39:02Z</time></trkpt>
<trkpt lat="46.49464" lon="6.70901"><ele>383.6</ele><time>2021-05-13T16:39:06Z</time></trkpt>
<trkpt lat="46.49461" lon="6.70906"><ele>383</ele><time>2021-05-13T16:39:07Z</time></trkpt>
<trkpt lat="46.49449" lon="6.70927"><ele>382.6</ele><time>2021-05-13T16:39:11Z</time></trkpt>
<trkpt lat="46.49443" lon="6.70936"><ele>381.8</ele><time>2021-05-13T16:39:13Z</time></trkpt>
<trkpt lat="46.49441" lon="6.70941"><ele>381.6</ele><time>2021-05-13T16:39:14Z</time></trkpt>
<trkpt lat="46.49439" lon="6.70946"><ele>381.4</ele><time>2021-05-13T16:39:15Z</time></trkpt>
<trkpt lat="46.49428" lon="6.70959"><ele>382</ele><time>2021-05-13T16:39:19Z</time></trkpt>
<trkpt lat="46.49425" lon="6.70962"><ele>382.6</ele><time>2021-05-13T16:39:31Z</time></trkpt>
</trkseg></trk></gpx>